M I D A S
Marine Information and Data Acquisition System
Tripno 838 of the Zeeleeuw from 2005-01-14 07:08:01 to 2005-01-14 14:49:40
Back to CruiseResearch ActivitiesStationsMapUnderway DataData graphs

EquipmentUnitsComment
TimeDGPSUTC
LatitudeDGPSDM.mWGS84
LongitudeDGPSDM.mWGS84
TemperatureSBE03/SBE38deg celciusITS90
ConductivitySBE21S/mITS90
SalinitySBE21 Practical Salinity Units
ChlorophylAChelsea fluorimeterg/lCalibrated in Aceton
Missing or incorrect values are displayed as -999
Sea surface data collected by the RV Zeeleeuw from 2005-01-14 07:09:25 to 2005-01-14 14:56:18
                                                                                    Next 1000 lines
Time Latitude Longitude Temperature Conductivity Salinity ChlorophylA
2005-01-14 07:09:35 51°13.591 2°56.104 14.785803 3.205506 28.215794 -0.882377
2005-01-14 07:09:41 51°13.592 2°56.1 14.697441 3.205506 28.215794 -0.882377
2005-01-14 07:09:45 51°13.593 2°56.098 14.749432 3.205506 28.216412 -0.882377
2005-01-14 07:09:51 51°13.594 2°56.093 14.843155 3.205611 28.217438 -0.882377
2005-01-14 07:09:55 51°13.595 2°56.09 14.825695 3.205611 28.216819 -0.882377
2005-01-14 07:10:01 51°13.597 2°56.083 14.825695 3.205611 28.216819 -0.882377
2005-01-14 07:10:06 51°13.599 2°56.078 14.835511 3.205506 28.216412 -0.882377
2005-01-14 07:10:11 51°13.601 2°56.073 14.831924 3.205611 28.216819 -0.882377
2005-01-14 07:10:16 51°13.602 2°56.067 14.842966 3.205506 28.215794 -0.882377
2005-01-14 07:10:21 51°13.605 2°56.06 14.863158 3.205611 28.216819 -0.882377
2005-01-14 07:10:26 51°13.607 2°56.054 14.81937 3.205506 28.215794 -0.882377
2005-01-14 07:10:31 51°13.609 2°56.047 14.830603 3.205506 28.215794 -0.882377
2005-01-14 07:10:35 51°13.611 2°56.041 14.830603 3.205506 28.215794 -0.882377
2005-01-14 07:10:41 51°13.614 2°56.032 14.831452 3.205611 28.217438 -0.882377
2005-01-14 07:10:46 51°13.616 2°56.025 14.836549 3.205506 28.215794 -0.882377
2005-01-14 07:10:51 51°13.618 2°56.017 14.832255 3.205611 28.217438 -0.916087
2005-01-14 07:10:56 51°13.621 2°56.01 14.838625 3.205611 28.216819 -0.882377
2005-01-14 07:11:01 51°13.623 2°56.002 14.841928 3.205611 28.217438 -0.882377
2005-01-14 07:11:06 51°13.625 2°55.994 14.841928 3.205611 28.217438 -0.882377
2005-01-14 07:11:11 51°13.628 2°55.987 14.85061 3.205611 28.216819 -0.882377
2005-01-14 07:11:16 51°13.631 2°55.979 14.848156 3.205611 28.216201 -0.882377
2005-01-14 07:11:21 51°13.633 2°55.971 14.879948 3.205611 28.216201 -0.916087
2005-01-14 07:11:26 51°13.636 2°55.963 14.895462 3.205611 28.216201 -0.848668
2005-01-14 07:11:31 51°13.639 2°55.955 14.895462 3.205611 28.216201 -0.848668
2005-01-14 07:11:36 51°13.642 2°55.947 14.880137 3.205611 28.216201 -0.882377
2005-01-14 07:11:41 51°13.645 2°55.938 14.863818 3.205611 28.216201 -0.882377
2005-01-14 07:11:46 51°13.648 2°55.93 14.856601 3.205716 28.216607 -0.882377
2005-01-14 07:11:51 51°13.652 2°55.921 14.86028 3.205611 28.216201 -0.882377
2005-01-14 07:11:55 51°13.654 2°55.914 14.898385 3.205611 28.216819 -0.848668
2005-01-14 07:12:01 51°13.658 2°55.904 14.888106 3.205611 28.216201 -0.882377
2005-01-14 07:12:06 51°13.662 2°55.896 14.888106 3.205611 28.216201 -0.882377
2005-01-14 07:12:11 51°13.665 2°55.888 14.89367 3.205716 28.217226 -0.882377
2005-01-14 07:12:15 51°13.668 2°55.882 14.893057 3.205716 28.216607 -0.882377
2005-01-14 07:12:21 51°13.673 2°55.872 14.878062 3.205716 28.216607 -0.882377
2005-01-14 07:12:26 51°13.677 2°55.864 13.938347 3.2034 28.217555 -0.578993
2005-01-14 07:12:31 51°13.681 2°55.856 13.938347 3.2034 28.217555 -0.578993
2005-01-14 07:12:35 51°13.684 2°55.85 11.751048 3.138537 27.565393 -0.74754
2005-01-14 07:12:41 51°13.688 2°55.84 9.835158 2.945039 25.060091 0.331161
2005-01-14 07:12:46 51°13.692 2°55.831 9.211009 3.02059 24.027276 -0.511574
2005-01-14 07:12:51 51°13.696 2°55.823 8.892715 3.096909 24.436268 -0.781249
2005-01-14 07:12:56 51°13.7 2°55.814 8.686627 3.569923 29.556611 -0.781249
2005-01-14 07:13:01 51°13.704 2°55.806 8.686627 3.569923 29.556611 -0.781249
2005-01-14 07:13:06 51°13.708 2°55.797 8.734235 3.450157 29.705088 -0.781249
2005-01-14 07:13:11 51°13.712 2°55.789 8.504142 3.444273 30.703081 -0.781249
2005-01-14 07:13:15 51°13.715 2°55.782 8.395904 3.387188 30.760765 -0.781249
2005-01-14 07:13:21 51°13.721 2°55.772 8.430396 3.341269 30.644089 -0.781249
2005-01-14 07:13:26 51°13.726 2°55.764 8.287489 3.32105 30.69408 -0.814958
2005-01-14 07:13:31 51°13.731 2°55.755 8.287489 3.32105 30.69408 -0.814958
2005-01-14 07:13:36 51°13.735 2°55.747 8.242992 3.29251 30.558471 -0.781249
2005-01-14 07:13:41 51°13.741 2°55.739 8.24398 3.269869 30.447995 -0.74754
2005-01-14 07:13:46 51°13.746 2°55.732 8.202835 3.226693 30.094301 -0.74754
2005-01-14 07:13:51 51°13.752 2°55.724 8.202263 3.24765 30.385368 -0.74754
2005-01-14 07:13:56 51°13.758 2°55.717 8.223489 3.244808 30.437267 -0.680121
2005-01-14 07:14:01 51°13.764 2°55.71 8.131148 3.200791 30.025704 -0.74754
2005-01-14 07:14:06 51°13.77 2°55.703 8.131148 3.200791 30.025704 -0.74754
2005-01-14 07:14:11 51°13.776 2°55.697 8.098064 3.232909 30.389448 -0.680121
2005-01-14 07:14:16 51°13.782 2°55.692 8.098377 3.230908 30.379369 -0.680121
2005-01-14 07:14:21 51°13.787 2°55.688 8.019429 3.210374 30.176378 -0.71383
2005-01-14 07:14:25 51°13.79 2°55.686 8.002991 3.151618 29.606412 -0.74754
2005-01-14 07:14:31 51°13.793 2°55.683 7.985975 3.18921 30.042763 -0.781249
2005-01-14 07:14:35 51°13.795 2°55.681 7.985975 3.18921 30.042763 -0.781249
2005-01-14 07:14:41 51°13.799 2°55.679 7.988115 3.169414 29.857699 -0.74754
2005-01-14 07:14:45 51°13.801 2°55.677 7.960704 3.191527 30.118242 -0.71383
2005-01-14 07:14:50 51°13.803 2°55.675 7.962949 3.186789 30.104458 -0.71383
2005-01-14 07:14:55 51°13.804 2°55.674 7.963889 3.194792 30.218987 -0.781249
2005-01-14 07:15:01 51°13.804 2°55.674 7.977622 3.184473 30.119579 -0.71383
2005-01-14 07:15:05 51°13.803 2°55.674 7.977622 3.184473 30.119579 -0.71383
2005-01-14 07:15:10 51°13.803 2°55.674 7.97569 3.192791 30.217439 -0.71383
2005-01-14 07:15:15 51°13.805 2°55.672 7.949736 3.193634 30.24281 -0.680121
2005-01-14 07:15:21 51°13.807 2°55.67 7.983626 3.199952 30.318417 -0.646411
2005-01-14 07:15:25 51°13.809 2°55.669 7.976734 3.201321 30.331328 -0.545283
2005-01-14 07:15:31 51°13.813 2°55.666 7.951617 3.208692 30.409364 -0.680121
2005-01-14 07:15:36 51°13.817 2°55.663 7.951617 3.208692 30.409364 -0.680121
2005-01-14 07:15:41 51°13.822 2°55.66 7.950154 3.207429 30.409142 -0.680121
2005-01-14 07:15:46 51°13.827 2°55.658 7.912171 3.212273 30.459983 -0.71383
2005-01-14 07:15:51 51°13.833 2°55.655 7.924556 3.207955 30.401632 -0.646411
2005-01-14 07:15:55 51°13.838 2°55.653 7.884676 3.170363 30.017634 -0.71383
2005-01-14 07:16:01 51°13.846 2°55.65 7.884676 3.170363 30.017634 -0.71383
2005-01-14 07:16:06 51°13.853 2°55.647 7.886767 3.205533 30.397942 -0.71383
2005-01-14 07:16:11 51°13.86 2°55.645 7.867839 3.199426 30.353373 -0.71383
2005-01-14 07:16:15 51°13.866 2°55.643 7.876624 3.200374 30.370568 -0.71383
2005-01-14 07:16:21 51°13.875 2°55.641 7.871499 3.202901 30.418157 -0.74754
2005-01-14 07:16:26 51°13.883 2°55.639 7.862609 3.210273 30.509494 -0.71383
2005-01-14 07:16:31 51°13.891 2°55.638 7.862609 3.210273 30.509494 -0.71383
2005-01-14 07:16:36 51°13.899 2°55.638 7.852043 3.212274 30.536379 -0.74754
2005-01-14 07:16:42 51°13.909 2°55.638 7.862399 3.163204 30.029195 -0.71383
2005-01-14 07:16:46 51°13.915 2°55.639 7.847231 3.212274 30.550247 -0.646411
2005-01-14 07:16:51 51°13.923 2°55.64 7.849794 3.20048 30.434841 -0.646411
2005-01-14 07:16:56 51°13.93 2°55.642 7.846917 3.201849 30.453619 -0.680121
2005-01-14 07:17:01 51°13.938 2°55.645 7.846917 3.201849 30.453619 -0.680121
2005-01-14 07:17:06 51°13.945 2°55.649 7.826407 3.215538 30.597051 -0.646411
2005-01-14 07:17:11 51°13.951 2°55.653 7.829023 3.216802 30.619149 -0.578993
2005-01-14 07:17:15 51°13.956 2°55.656 7.850108 3.21596 30.614666 -0.646411
2005-01-14 07:17:21 51°13.963 2°55.661 7.826145 3.22133 30.67274 -0.646411
2005-01-14 07:17:26 51°13.968 2°55.665 7.83661 3.23165 30.78598 -0.612702
2005-01-14 07:17:31 51°13.971 2°55.669 7.83661 3.23165 30.78598 -0.612702
2005-01-14 07:17:35 51°13.974 2°55.671 7.839802 3.229018 30.767783 -0.71383
2005-01-14 07:17:41 51°13.976 2°55.673 7.838232 3.237021 30.8515 -0.71383
2005-01-14 07:17:45 51°13.977 2°55.673 7.830645 3.236811 30.850754 -0.578993
2005-01-14 07:17:49 51°13.977 2°55.672 7.82604 3.240075 30.883735 -0.680121
2005-01-14 07:17:55 51°13.976 2°55.669 7.824889 3.243656 30.921533 -0.646411
2005-01-14 07:18:01 51°13.976 2°55.664 7.843359 3.243866 30.924497 -0.612702
2005-01-14 07:18:05 51°13.976 2°55.66 7.843359 3.243866 30.924497 -0.612702
2005-01-14 07:18:11 51°13.976 2°55.652 7.823895 3.245762 30.949697 -0.612702
2005-01-14 07:18:15 51°13.976 2°55.646 7.860464 3.234283 30.832938 -0.680121
2005-01-14 07:18:21 51°13.978 2°55.636 7.841737 3.231229 30.800702 -0.646411
2005-01-14 07:18:25 51°13.98 2°55.628 7.837971 3.226491 30.747744 -0.612702
2005-01-14 07:18:29 51°13.982 2°55.62 7.811753 3.249237 30.990853 -0.680121
2005-01-14 07:18:34 51°13.986 2°55.61 7.811753 3.249237 30.990853 -0.680121
2005-01-14 07:18:41 51°13.992 2°55.594 7.795368 3.244288 30.929685 -0.612702
2005-01-14 07:18:45 51°13.995 2°55.584 7.797201 3.245341 30.934138 -0.680121
2005-01-14 07:18:50 51°14.001 2°55.572 7.80521 3.22449 30.720013 -0.680121
2005-01-14 07:18:55 51°14.007 2°55.561 7.816935 3.216803 30.653614 -0.612702
2005-01-14 07:19:01 51°14.015 2°55.546 7.805315 3.194163 30.429467 -0.680121
2005-01-14 07:19:05 51°14.02 2°55.537 7.805315 3.194163 30.429467 -0.680121
2005-01-14 07:19:10 51°14.028 2°55.525 7.804634 3.202482 30.523779 -0.71383
2005-01-14 07:19:15 51°14.036 2°55.513 7.809764 3.200376 30.503023 -0.612702
2005-01-14 07:19:21 51°14.046 2°55.499 7.791965 3.163416 30.109835 -0.646411
2005-01-14 07:19:25 51°14.053 2°55.49 7.806833 3.188477 30.376799 -0.680121
2005-01-14 07:19:31 51°14.064 2°55.477 7.81997 3.205641 30.557842 -0.612702
2005-01-14 07:19:35 51°14.072 2°55.469 7.81997 3.205641 30.557842 -0.612702
2005-01-14 07:19:41 51°14.084 2°55.456 7.80432 3.203535 30.536352 -0.646411
2005-01-14 07:19:45 51°14.092 2°55.448 7.801441 3.2088 30.594846 -0.646411
2005-01-14 07:19:50 51°14.103 2°55.438 7.793169 3.215329 30.663032 -0.680121
2005-01-14 07:19:54 51°14.112 2°55.43 7.788248 3.20385 30.535294 -0.646411
2005-01-14 07:20:01 51°14.127 2°55.415 7.788248 3.20385 30.535294 -0.646411
2005-01-14 07:20:05 51°14.136 2°55.407 7.786415 3.199638 30.490862 -0.612702
2005-01-14 07:20:11 51°14.149 2°55.394 7.796311 3.197848 30.476363 -0.646411
2005-01-14 07:20:15 51°14.158 2°55.385 7.775209 3.189003 30.390363 -0.646411
2005-01-14 07:20:21 51°14.172 2°55.372 7.779137 3.168575 30.17936 -0.71383
2005-01-14 07:20:25 51°14.181 2°55.363 7.786049 3.185002 30.356899 -0.578993
2005-01-14 07:20:30 51°14.192 2°55.351 7.786049 3.185002 30.356899 -0.578993
2005-01-14 07:20:35 51°14.202 2°55.338 7.789085 3.184159 30.348741 -0.71383
2005-01-14 07:20:41 51°14.215 2°55.322 7.784111 3.199428 30.514968 -0.646411
2005-01-14 07:20:45 51°14.223 2°55.311 7.773324 3.203324 30.557569 -0.646411
2005-01-14 07:20:49 51°14.231 2°55.299 7.766044 3.205009 30.576828 -0.646411
2005-01-14 07:20:55 51°14.243 2°55.281 7.772119 3.209853 30.625784 -0.612702
2005-01-14 07:21:01 51°14.255 2°55.263 7.772119 3.209853 30.625784 -0.612702
2005-01-14 07:21:05 51°14.263 2°55.25 7.767248 3.21059 30.63651 -0.578993
2005-01-14 07:21:10 51°14.272 2°55.233 7.745456 3.216382 30.699909 -0.578993
2005-01-14 07:21:15 51°14.282 2°55.216 7.732933 3.207642 30.61271 -0.612702
2005-01-14 07:21:21 51°14.293 2°55.195 7.740898 3.203535 30.572995 -0.680121
2005-01-14 07:21:25 51°14.3 2°55.18 7.744094 3.207958 30.623397 -0.578993
2005-01-14 07:21:31 51°14.311 2°55.158 7.739431 3.192584 30.469767 -0.578993
2005-01-14 07:21:35 51°14.319 2°55.143 7.739431 3.192584 30.469767 -0.578993
2005-01-14 07:21:41 51°14.331 2°55.12 7.746871 3.18953 30.449211 -0.578993
2005-01-14 07:21:45 51°14.34 2°55.105 7.753577 3.174578 30.292012 -0.680121
2005-01-14 07:21:51 51°14.352 2°55.083 7.76442 3.182475 30.376141 -0.680121
2005-01-14 07:21:55 51°14.362 2°55.069 7.764158 3.143095 29.962 -0.612702
2005-01-14 07:22:01 51°14.375 2°55.047 7.750014 3.194479 30.501507 -0.545283
2005-01-14 07:22:06 51°14.387 2°55.029 7.750014 3.194479 30.501507 -0.545283
2005-01-14 07:22:11 51°14.398 2°55.01 7.772433 3.194479 30.497844 -0.578993
2005-01-14 07:22:15 51°14.407 2°54.994 7.768872 3.20185 30.572074 -0.578993
2005-01-14 07:22:21 51°14.42 2°54.97 7.759025 3.181422 30.353353 -0.578993
2005-01-14 07:22:25 51°14.428 2°54.953 7.758606 3.219541 30.75322 -0.545283
2005-01-14 07:22:31 51°14.441 2°54.927 7.741788 3.21375 30.688292 -0.612702
2005-01-14 07:22:35 51°14.449 2°54.908 7.741788 3.21375 30.688292 -0.612702
2005-01-14 07:22:41 51°14.462 2°54.883 7.751324 3.217014 30.723542 -0.545283
2005-01-14 07:22:45 51°14.471 2°54.866 7.747237 3.238286 30.953029 -0.578993
2005-01-14 07:22:49 51°14.48 2°54.851 7.742627 3.248396 31.063053 -0.612702
2005-01-14 07:22:54 51°14.493 2°54.832 7.734295 3.249449 31.078686 -0.612702
2005-01-14 07:23:01 51°14.511 2°54.807 7.734295 3.249449 31.078686 -0.612702
2005-01-14 07:23:05 51°14.521 2°54.793 7.728845 3.264614 31.241641 -0.612702
2005-01-14 07:23:10 51°14.535 2°54.776 7.738854 3.255768 31.153115 -0.511574
2005-01-14 07:23:15 51°14.548 2°54.759 7.733352 3.271038 31.317281 -0.545283
2005-01-14 07:23:21 51°14.565 2°54.738 7.74357 3.286519 31.486095 -0.511574
2005-01-14 07:23:25 51°14.577 2°54.725 7.755253 3.295366 31.580034 -0.511574
2005-01-14 07:23:30 51°14.591 2°54.707 7.755253 3.295366 31.580034 -0.511574
2005-01-14 07:23:35 51°14.605 2°54.689 7.768872 3.335178 32.00171 -0.646411
2005-01-14 07:23:41 51°14.622 2°54.668 7.773533 3.351398 32.173578 -0.612702
2005-01-14 07:23:45 51°14.633 2°54.653 7.77987 3.362457 32.292137 -0.646411
2005-01-14 07:23:50 51°14.648 2°54.635 7.776989 3.380574 32.481311 -0.646411
2005-01-14 07:23:55 51°14.662 2°54.616 7.790499 3.391002 32.581538 -0.612702
2005-01-14 07:24:01 51°14.679 2°54.594 7.790499 3.391002 32.581538 -0.612702
2005-01-14 07:24:05 51°14.691 2°54.579 7.805891 3.408488 32.763318 -0.612702
2005-01-14 07:24:11 51°14.709 2°54.556 7.81191 3.413754 32.809266 -0.646411
2005-01-14 07:24:15 51°14.721 2°54.541 7.805838 3.412385 32.790719 -0.680121
2005-01-14 07:24:21 51°14.738 2°54.52 7.810392 3.420812 32.875092 -0.680121
2005-01-14 07:24:25 51°14.75 2°54.505 7.81908 3.426711 32.931706 -0.646411
2005-01-14 07:24:29 51°14.763 2°54.492 7.81908 3.426711 32.931706 -0.646411
2005-01-14 07:24:35 51°14.781 2°54.471 7.826773 3.427343 32.932914 -0.646411
2005-01-14 07:24:41 51°14.8 2°54.45 7.840743 3.42334 32.885479 -0.578993
2005-01-14 07:24:45 51°14.812 2°54.437 7.844719 3.434295 32.997585 -0.511574
2005-01-14 07:24:51 51°14.831 2°54.417 7.836872 3.437245 33.02509 -0.646411
2005-01-14 07:24:55 51°14.844 2°54.403 7.84587 3.43419 32.985378 -0.646411
2005-01-14 07:25:01 51°14.863 2°54.383 7.839488 3.434295 32.978589 -0.680121
2005-01-14 07:25:05 51°14.875 2°54.369 7.839488 3.434295 32.978589 -0.680121
2005-01-14 07:25:10 51°14.891 2°54.352 7.836976 3.410383 32.719077 -0.71383
2005-01-14 07:25:15 51°14.906 2°54.335 7.838337 3.436086 32.990561 -0.680121
2005-01-14 07:25:21 51°14.925 2°54.315 7.839854 3.436296 32.991225 -0.646411
2005-01-14 07:25:25 51°14.937 2°54.301 7.831326 3.447147 33.106121 -0.680121
2005-01-14 07:25:31 51°14.954 2°54.281 7.835198 3.446936 33.102286 -0.646411
2005-01-14 07:25:35 51°14.967 2°54.267 7.835198 3.446936 33.102286 -0.646411
2005-01-14 07:25:41 51°14.985 2°54.246 7.831378 3.451992 33.157806 -0.646411
2005-01-14 07:25:45 51°14.996 2°54.232 7.841214 3.44662 33.102885 -0.71383
2005-01-14 07:25:50 51°15.012 2°54.215 7.823058 3.458524 33.231472 -0.71383
2005-01-14 07:25:55 51°15.026 2°54.197 7.818609 3.455469 33.201261 -0.680121
2005-01-14 07:26:01 51°15.044 2°54.176 7.819185 3.447673 33.118886 -0.680121
2005-01-14 07:26:05 51°15.056 2°54.162 7.819185 3.447673 33.118886 -0.680121
2005-01-14 07:26:10 51°15.072 2°54.144 7.814213 3.451255 33.155506 -0.646411
2005-01-14 07:26:15 51°15.087 2°54.127 7.802488 3.459893 33.25167 -0.680121
2005-01-14 07:26:21 51°15.105 2°54.106 7.800813 3.448306 33.135961 -0.71383
2005-01-14 07:26:25 51°15.118 2°54.093 7.795682 3.456944 33.229753 -0.680121
2005-01-14 07:26:31 51°15.137 2°54.073 7.792227 3.449991 33.157926 -0.71383
2005-01-14 07:26:35 51°15.15 2°54.06 7.792227 3.449991 33.157926 -0.71383
2005-01-14 07:26:41 51°15.169 2°54.04 7.778822 3.430608 32.958257 -0.612702
2005-01-14 07:26:45 51°15.182 2°54.026 7.785263 3.453046 33.202486 -0.71383
2005-01-14 07:26:49 51°15.194 2°54.012 7.780393 3.450202 33.174504 -0.646411
2005-01-14 07:26:55 51°15.213 2°53.991 7.771857 3.449886 33.175112 -0.74754
2005-01-14 07:27:01 51°15.232 2°53.97 7.773585 3.452625 33.213136 -0.680121
2005-01-14 07:27:05 51°15.244 2°53.956 7.773585 3.452625 33.213136 -0.680121
2005-01-14 07:27:10 51°15.26 2°53.938 7.783849 3.453573 33.22566 -0.680121
2005-01-14 07:27:15 51°15.276 2°53.919 7.793902 3.452414 33.217268 -0.71383
2005-01-14 07:27:21 51°15.294 2°53.898 7.808926 3.446937 33.163524 -0.781249
2005-01-14 07:27:25 51°15.307 2°53.884 7.808037 3.446726 33.165257 -0.680121
2005-01-14 07:27:30 51°15.324 2°53.868 7.808037 3.446726 33.165257 -0.680121
2005-01-14 07:27:35 51°15.341 2°53.852 7.813951 3.444619 33.138764 -0.680121
2005-01-14 07:27:41 51°15.361 2°53.834 7.823529 3.451361 33.202822 -0.680121
2005-01-14 07:27:45 51°15.375 2°53.823 7.826825 3.461263 33.30144 -0.680121
2005-01-14 07:27:50 51°15.392 2°53.809 7.835302 3.474221 33.433524 -0.680121
2005-01-14 07:27:55 51°15.409 2°53.795 7.830593 3.467795 33.36003 -0.680121
2005-01-14 07:28:01 51°15.43 2°53.778 7.830593 3.467795 33.36003 -0.680121
2005-01-14 07:28:05 51°15.444 2°53.766 7.830227 3.476644 33.446578 -0.646411
2005-01-14 07:28:11 51°15.464 2°53.748 7.836453 3.481806 33.49693 -0.646411
2005-01-14 07:28:15 51°15.477 2°53.735 7.834203 3.440299 33.048165 -0.680121
2005-01-14 07:28:21 51°15.498 2°53.716 7.839906 3.451676 33.167957 -0.680121
2005-01-14 07:28:25 51°15.511 2°53.703 7.834046 3.474115 33.406729 -0.680121
2005-01-14 07:28:30 51°15.527 2°53.688 7.839279 3.473378 33.398852 -0.71383
2005-01-14 07:28:35 51°15.544 2°53.672 7.839279 3.473378 33.398852 -0.71383
2005-01-14 07:28:41 51°15.564 2°53.653 7.838755 3.486125 33.535052 -0.612702
2005-01-14 07:28:45 51°15.578 2°53.641 7.843882 3.484966 33.521863 -0.612702
2005-01-14 07:28:49 51°15.591 2°53.629 7.845766 3.475906 33.422653 -0.646411
2005-01-14 07:28:55 51°15.611 2°53.61 7.845609 3.473167 33.390993 -0.646411
2005-01-14 07:29:01 51°15.632 2°53.592 7.84948 3.50414 33.722817 -0.680121
2005-01-14 07:29:05 51°15.645 2°53.579 7.84948 3.50414 33.722817 -0.680121
2005-01-14 07:29:09 51°15.658 2°53.567 7.850422 3.473588 33.393091 -0.578993
2005-01-14 07:29:15 51°15.678 2°53.548 7.841999 3.491497 33.582008 -0.646411
2005-01-14 07:29:21 51°15.698 2°53.529 7.840273 3.487705 33.540675 -0.612702
2005-01-14 07:29:25 51°15.711 2°53.517 7.841528 3.493288 33.599537 -0.680121
2005-01-14 07:29:31 51°15.732 2°53.498 7.842679 3.478856 33.442129 -0.646411
2005-01-14 07:29:35 51°15.745 2°53.486 7.842679 3.478856 33.442129 -0.646411
2005-01-14 07:29:41 51°15.765 2°53.466 7.83729 3.462948 33.273905 -0.71383
2005-01-14 07:29:45 51°15.778 2°53.454 7.834884 3.452835 33.168387 -0.680121
2005-01-14 07:29:50 51°15.795 2°53.439 7.832163 3.50435 33.721025 -0.612702
2005-01-14 07:29:55 51°15.812 2°53.424 7.827349 3.461157 33.261174 -0.612702
2005-01-14 07:30:01 51°15.831 2°53.406 7.83232 3.490444 33.575582 -0.71383
2005-01-14 07:30:05 51°15.844 2°53.393 7.83232 3.490444 33.575582 -0.71383
2005-01-14 07:30:11 51°15.865 2°53.375 7.833052 3.488969 33.559818 -0.680121
2005-01-14 07:30:15 51°15.878 2°53.363 7.83232 3.481911 33.486804 -0.612702
2005-01-14 07:30:21 51°15.898 2°53.345 7.826511 3.495817 33.639471 -0.71383
2005-01-14 07:30:25 51°15.911 2°53.333 7.823476 3.491919 33.600213 -0.646411
2005-01-14 07:30:31 51°15.932 2°53.315 7.823476 3.491919 33.600213 -0.646411
2005-01-14 07:30:35 51°15.945 2°53.303 7.827087 3.48623 33.539397 -0.612702
2005-01-14 07:30:41 51°15.965 2°53.284 7.828814 3.502875 33.715768 -0.646411
2005-01-14 07:30:45 51°15.979 2°53.273 7.824209 3.497292 33.659281 -0.646411
2005-01-14 07:30:49 51°15.992 2°53.261 7.823843 3.502454 33.716924 -0.578993
2005-01-14 07:30:55 51°16.012 2°53.243 7.821383 3.508775 33.782936 -0.646411
2005-01-14 07:31:01 51°16.033 2°53.226 7.821383 3.508775 33.782936 -0.646411
2005-01-14 07:31:05 51°16.046 2°53.215 7.819604 3.495817 33.646737 -0.646411
2005-01-14 07:31:09 51°16.06 2°53.204 7.810392 3.481279 33.492103 -0.612702
2005-01-14 07:31:15 51°16.08 2°53.186 7.806519 3.491603 33.603285 -0.71383
2005-01-14 07:31:21 51°16.1 2°53.169 7.798457 3.500769 33.702936 -0.646411
2005-01-14 07:31:25 51°16.114 2°53.157 7.797201 3.500769 33.706172 -0.646411
2005-01-14 07:31:30 51°16.131 2°53.144 7.797201 3.500769 33.706172 -0.646411
2005-01-14 07:31:35 51°16.149 2°53.131 7.794897 3.477381 33.458475 -0.680121
2005-01-14 07:31:41 51°16.17 2°53.116 7.793798 3.492341 33.624084 -0.646411
2005-01-14 07:31:45 51°16.184 2°53.105 7.794897 3.463054 33.315778 -0.578993
2005-01-14 07:31:50 51°16.201 2°53.093 7.799347 3.481595 33.517202 -0.71383
2005-01-14 07:31:55 51°16.219 2°53.08 7.798405 3.464002 33.334714 -0.646411
2005-01-14 07:32:01 51°16.24 2°53.065 7.7894 3.496449 33.681794 -0.612702
2005-01-14 07:32:05 51°16.254 2°53.055 7.7894 3.496449 33.681794 -0.612702
2005-01-14 07:32:11 51°16.275 2°53.039 7.78919 3.498873 33.710162 -0.612702
2005-01-14 07:32:15 51°16.288 2°53.029 7.791651 3.487284 33.582088 -0.578993
2005-01-14 07:32:21 51°16.309 2°53.013 7.791075 3.489496 33.606568 -0.612702
2005-01-14 07:32:25 51°16.323 2°53.003 7.786101 3.493605 33.652155 -0.646411
2005-01-14 07:32:30 51°16.34 2°52.991 7.794269 3.492235 33.640729 -0.646411
2005-01-14 07:32:34 51°16.354 2°52.981 7.794269 3.492235 33.640729 -0.646411
2005-01-14 07:32:41 51°16.379 2°52.967 7.793536 3.48918 33.609645 -0.578993
2005-01-14 07:32:45 51°16.394 2°52.96 7.793222 3.494448 33.664411 -0.71383
2005-01-14 07:32:49 51°16.408 2°52.954 7.792384 3.497292 33.695673 -0.680121
2005-01-14 07:32:56 51°16.434 2°52.947 7.800185 3.485809 33.57518 -0.477864
2005-01-14 07:33:01 51°16.452 2°52.945 7.795264 3.498873 33.712592 -0.376736
2005-01-14 07:33:06 51°16.471 2°52.941 7.795264 3.498873 33.712592 -0.376736
2005-01-14 07:33:10 51°16.486 2°52.94 7.799033 3.490761 33.624135 -0.376736
2005-01-14 07:33:15 51°16.505 2°52.938 7.794531 3.497819 33.698883 -0.444155
2005-01-14 07:33:21 51°16.527 2°52.936 7.793065 3.492973 33.643773 -0.376736
2005-01-14 07:33:25 51°16.542 2°52.935 7.795054 3.484861 33.556164 -0.444155
2005-01-14 07:33:29 51°16.557 2°52.933 7.795054 3.484861 33.556164 -0.444155
2005-01-14 07:33:34 51°16.576 2°52.932 7.801546 3.504667 33.769774 -0.511574
2005-01-14 07:33:41 51°16.602 2°52.932 7.796572 3.490023 33.613819 -0.444155
2005-01-14 07:33:45 51°16.617 2°52.932 7.797724 3.497398 33.693562 -0.410446
2005-01-14 07:33:50 51°16.636 2°52.934 7.801807 3.487811 33.590952 -0.511574
2005-01-14 07:33:54 51°16.651 2°52.937 7.793169 3.492551 33.640879 -0.477864
2005-01-14 07:34:00 51°16.673 2°52.942 7.801441 3.496555 33.68373 -0.511574
2005-01-14 07:34:05 51°16.691 2°52.948 7.801441 3.496555 33.68373 -0.511574
2005-01-14 07:34:11 51°16.712 2°52.956 7.80275 3.482438 33.532659 -0.477864
2005-01-14 07:34:15 51°16.727 2°52.962 7.801598 3.500137 33.719648 -0.545283
2005-01-14 07:34:21 51°16.748 2°52.971 7.812224 3.496765 33.682749 -0.410446
2005-01-14 07:34:25 51°16.762 2°52.977 7.807251 3.507406 33.79586 -0.545283
2005-01-14 07:34:31 51°16.784 2°52.986 7.808769 3.505088 33.769419 -0.444155
2005-01-14 07:34:35 51°16.798 2°52.992 7.808769 3.505088 33.769419 -0.444155
2005-01-14 07:34:41 51°16.819 2°53.001 7.811125 3.494764 33.659707 -0.444155
2005-01-14 07:34:45 51°16.833 2°53.007 7.811177 3.50119 33.726065 -0.477864
2005-01-14 07:34:51 51°16.853 2°53.016 7.809921 3.489286 33.597049 -0.511574
2005-01-14 07:34:55 51°16.867 2°53.02 7.809398 3.507301 33.789862 -0.545283
2005-01-14 07:35:01 51°16.886 2°53.029 7.809398 3.507301 33.789862 -0.545283
2005-01-14 07:35:05 51°16.9 2°53.034 7.818138 3.504456 33.760218 -0.410446
2005-01-14 07:35:11 51°16.92 2°53.043 7.816673 3.50572 33.772131 -0.511574
2005-01-14 07:35:15 51°16.933 2°53.049 7.812224 3.507722 33.792751 -0.511574
2005-01-14 07:35:21 51°16.954 2°53.058 7.819185 3.497187 33.680787 -0.511574
2005-01-14 07:35:25 51°16.967 2°53.064 7.813847 3.498978 33.697527 -0.511574
2005-01-14 07:35:31 51°16.988 2°53.071 7.813847 3.498978 33.697527 -0.511574
2005-01-14 07:35:35 51°17.002 2°53.076 7.82536 3.490971 33.611047 -0.477864
2005-01-14 07:35:41 51°17.023 2°53.083 7.81929 3.500242 33.70782 -0.545283
2005-01-14 07:35:45 51°17.037 2°53.086 7.819761 3.50277 33.7365 -0.511574
2005-01-14 07:35:50 51°17.054 2°53.09 7.819447 3.502454 33.731497 -0.578993
2005-01-14 07:35:55 51°17.072 2°53.095 7.824052 3.510356 33.814456 -0.545283
2005-01-14 07:36:01 51°17.093 2°53.1 7.822901 3.505615 33.762894 -0.612702
2005-01-14 07:36:05 51°17.108 2°53.103 7.822901 3.505615 33.762894 -0.612702
2005-01-14 07:36:10 51°17.126 2°53.109 7.831535 3.507406 33.782065 -0.511574
2005-01-14 07:36:13 51°17.136 2°53.112 7.828552 3.512041 33.831691 -0.511574
2005-01-14 07:36:21 51°17.165 2°53.122 7.829494 3.497819 33.677038 -0.511574
2005-01-14 07:36:25 51°17.18 2°53.129 7.826407 3.508881 33.796231 -0.477864
2005-01-14 07:36:30 51°17.198 2°53.136 7.823529 3.498345 33.678631 -0.410446
2005-01-14 07:36:36 51°17.219 2°53.147 7.823529 3.498345 33.678631 -0.410446
2005-01-14 07:36:41 51°17.236 2°53.159 7.831378 3.49508 33.641273 -0.477864
2005-01-14 07:36:45 51°17.248 2°53.17 7.836401 3.498661 33.67797 -0.410446
2005-01-14 07:36:50 51°17.263 2°53.186 7.845452 3.489601 33.580269 -0.410446
2005-01-14 07:36:55 51°17.277 2°53.204 7.854711 3.495185 33.640784 -0.343027
2005-01-14 07:37:01 51°17.293 2°53.226 7.834622 3.509829 33.795832 -0.511574
2005-01-14 07:37:05 51°17.304 2°53.242 7.834622 3.509829 33.795832 -0.511574
2005-01-14 07:37:11 51°17.319 2°53.266 7.833837 3.506141 33.752324 -0.477864
2005-01-14 07:37:15 51°17.329 2°53.282 7.836035 3.502454 33.707216 -0.410446
2005-01-14 07:37:21 51°17.343 2°53.306 7.832948 3.495185 33.624644 -0.410446
2005-01-14 07:37:25 51°17.354 2°53.322 7.826354 3.481068 33.476996 -0.444155
2005-01-14 07:37:30 51°17.368 2°53.341 7.825046 3.511304 33.805126 -0.444155
2005-01-14 07:37:35 51°17.381 2°53.36 7.825046 3.511304 33.805126 -0.444155
2005-01-14 07:37:41 51°17.398 2°53.382 7.823529 3.488758 33.565619 -0.545283
2005-01-14 07:37:45 51°17.409 2°53.397 7.827506 3.507195 33.763595 -0.444155
2005-01-14 07:37:49 51°17.42 2°53.411 7.825936 3.506457 33.760567 -0.444155
2005-01-14 07:37:53 51°17.432 2°53.425 7.825151 3.5073 33.772017 -0.444155
2005-01-14 07:38:01 51°17.454 2°53.454 7.826302 3.495396 33.645461 -0.410446
2005-01-14 07:38:05 51°17.464 2°53.47 7.826302 3.495396 33.645461 -0.410446
2005-01-14 07:38:10 51°17.477 2°53.49 7.826302 3.502349 33.720653 -0.376736
2005-01-14 07:38:15 51°17.489 2°53.512 7.833105 3.491603 33.605705 -0.410446
2005-01-14 07:38:20 51°17.5 2°53.535 7.844144 3.498662 33.682821 -0.343027
2005-01-14 07:38:25 51°17.51 2°53.558 7.838127 3.472008 33.397044 -0.410446
2005-01-14 07:38:31 51°17.522 2°53.587 7.838127 3.472008 33.397044 -0.410446
2005-01-14 07:38:35 51°17.53 2°53.606 7.842104 3.512252 33.825012 -0.477864
2005-01-14 07:38:41 51°17.541 2°53.634 7.838651 3.508354 33.779237 -0.410446
2005-01-14 07:38:45 51°17.549 2°53.654 7.830436 3.513411 33.828485 -0.376736
2005-01-14 07:38:51 51°17.562 2°53.682 7.829023 3.501611 33.699819 -0.477864
2005-01-14 07:38:56 51°17.573 2°53.704 7.832948 3.515623 33.850538 -0.376736
2005-01-14 07:39:01 51°17.583 2°53.727 7.832948 3.515623 33.850538 -0.376736
2005-01-14 07:39:05 51°17.592 2°53.745 7.832215 3.510039 33.789977 -0.410446
2005-01-14 07:39:11 51°17.605 2°53.772 7.836401 3.512041 33.813829 -0.376736
2005-01-14 07:39:15 51°17.614 2°53.79 7.831221 3.509091 33.786318 -0.376736
2005-01-14 07:39:21 51°17.628 2°53.816 7.837761 3.514254 33.84319 -0.477864
2005-01-14 07:39:25 51°17.636 2°53.834 7.835616 3.516045 33.863174 -0.477864
2005-01-14 07:39:30 51°17.647 2°53.857 7.835459 3.507616 33.771346 -0.410446
2005-01-14 07:39:35 51°17.658 2°53.88 7.835459 3.507616 33.771346 -0.410446
2005-01-14 07:39:41 51°17.671 2°53.907 7.838912 3.506352 33.757819 -0.343027
2005-01-14 07:39:45 51°17.68 2°53.926 7.835668 3.516571 33.866375 -0.410446
2005-01-14 07:39:51 51°17.692 2°53.953 7.837971 3.515623 33.8546 -0.444155
2005-01-14 07:39:55 51°17.7 2°53.971 7.838127 3.518257 33.883606 -0.444155
2005-01-14 07:40:01 51°17.712 2°54 7.839697 3.502981 33.718513 -0.511574
2005-01-14 07:40:06 51°17.723 2°54.023 7.839697 3.502981 33.718513 -0.511574
2005-01-14 07:40:11 51°17.733 2°54.046 7.843516 3.506879 33.759404 -0.309317
2005-01-14 07:40:15 51°17.742 2°54.064 7.837343 3.502559 33.712387 -0.410446
2005-01-14 07:40:21 51°17.755 2°54.092 7.836244 3.509618 33.787089 -0.444155
2005-01-14 07:40:25 51°17.763 2°54.111 7.839069 3.51183 33.80914 -0.410446
2005-01-14 07:40:29 51°17.772 2°54.128 7.845975 3.507406 33.762609 -0.444155
2005-01-14 07:40:34 51°17.783 2°54.15 7.845975 3.507406 33.762609 -0.444155
2005-01-14 07:40:41 51°17.798 2°54.182 7.841842 3.508354 33.772753 -0.309317
2005-01-14 07:40:45 51°17.807 2°54.2 7.840953 3.514886 33.845894 -0.343027
2005-01-14 07:40:50 51°17.818 2°54.223 7.839226 3.51478 33.84233 -0.444155
2005-01-14 07:40:55 51°17.829 2°54.246 7.842418 3.499188 33.674713 -0.376736
2005-01-14 07:41:01 51°17.842 2°54.273 7.833314 3.505088 33.737005 -0.410446
2005-01-14 07:41:06 51°17.853 2°54.295 7.833314 3.505088 33.737005 -0.410446
2005-01-14 07:41:11 51°17.863 2°54.319 7.837761 3.50867 33.776134 -0.477864
2005-01-14 07:41:15 51°17.872 2°54.337 7.840011 3.505299 33.741688 -0.376736
2005-01-14 07:41:21 51°17.885 2°54.365 7.844615 3.520259 33.900967 -0.444155
2005-01-14 07:41:25 51°17.893 2°54.384 7.842836 3.508564 33.776628 -0.376736
2005-01-14 07:41:31 51°17.906 2°54.411 7.840273 3.511514 33.809003 -0.376736
2005-01-14 07:41:35 51°17.914 2°54.43 7.840273 3.511514 33.809003 -0.376736
2005-01-14 07:41:41 51°17.926 2°54.458 7.841267 3.513621 33.83074 -0.376736
2005-01-14 07:41:45 51°17.934 2°54.477 7.843359 3.506773 33.755036 -0.444155
2005-01-14 07:41:50 51°17.945 2°54.499 7.843255 3.509407 33.783214 -0.275608
2005-01-14 07:41:55 51°17.955 2°54.522 7.841005 3.480225 33.470401 -0.444155
2005-01-14 07:42:01 51°17.968 2°54.549 7.841005 3.480225 33.470401 -0.444155
2005-01-14 07:42:05 51°17.977 2°54.567 7.843621 3.512462 33.814281 -0.376736
2005-01-14 07:42:09 51°17.985 2°54.586 7.842418 3.520153 33.897399 -0.343027
2005-01-14 07:42:15 51°17.998 2°54.614 7.845818 3.514675 33.838766 -0.410446
2005-01-14 07:42:21 51°18.012 2°54.64 7.843569 3.513832 33.828124 -0.410446
2005-01-14 07:42:25 51°18.02 2°54.659 7.842836 3.514043 33.830379 -0.410446
2005-01-14 07:42:31 51°18.033 2°54.686 7.842836 3.514043 33.830379 -0.410446
2005-01-14 07:42:35 51°18.042 2°54.704 7.842993 3.511725 33.80639 -0.275608
2005-01-14 07:42:41 51°18.054 2°54.732 7.848015 3.499926 33.680176 -0.410446
2005-01-14 07:42:45 51°18.063 2°54.75 7.851102 3.51162 33.806074 -0.309317
2005-01-14 07:42:51 51°18.075 2°54.778 7.850369 3.520575 33.901096 -0.241899
2005-01-14 07:42:55 51°18.083 2°54.796 7.849689 3.523314 33.92879 -0.309317
2005-01-14 07:43:01 51°18.096 2°54.825 7.849689 3.523314 33.92879 -0.309317
2005-01-14 07:43:05 51°18.103 2°54.844 7.848538 3.505825 33.741655 -0.477864
2005-01-14 07:43:10 51°18.114 2°54.866 7.848695 3.519416 33.884627 -0.241899
2005-01-14 07:43:15 51°18.125 2°54.889 7.848486 3.516044 33.847738 -0.309317
2005-01-14 07:43:21 51°18.138 2°54.916 7.850683 3.524157 33.932113 -0.376736
2005-01-14 07:43:25 51°18.146 2°54.934 7.8488 3.522471 33.916513 -0.343027
2005-01-14 07:43:30 51°18.157 2°54.957 7.84519 3.5191 33.880431 -0.309317
2005-01-14 07:43:35 51°18.168 2°54.98 7.84519 3.5191 33.880431 -0.309317
2005-01-14 07:43:41 51°18.182 2°55.007 7.846446 3.522471 33.91814 -0.309317
2005-01-14 07:43:45 51°18.191 2°55.026 7.853665 3.524578 33.939881 -0.343027
2005-01-14 07:43:50 51°18.202 2°55.047 7.85084 3.522682 33.920396 -0.410446
2005-01-14 07:43:54 51°18.21 2°55.065 7.849428 3.514675 33.835519 -0.309317
2005-01-14 07:44:01 51°18.225 2°55.098 7.845766 3.519416 33.88544 -0.410446
2005-01-14 07:44:05 51°18.233 2°55.116 7.845766 3.519416 33.88544 -0.410446
2005-01-14 07:44:10 51°18.244 2°55.139 7.848957 3.521312 33.90655 -0.241899
2005-01-14 07:44:15 51°18.256 2°55.161 7.84519 3.520469 33.894276 -0.376736
2005-01-14 07:44:21 51°18.27 2°55.187 7.85288 3.520996 33.899913 -0.376736
2005-01-14 07:44:25 51°18.28 2°55.204 7.846237 3.509723 33.7793 -0.511574
2005-01-14 07:44:31 51°18.295 2°55.229 7.848277 3.519626 33.886882 -0.275608
2005-01-14 07:44:35 51°18.305 2°55.245 7.848277 3.519626 33.886882 -0.275608
2005-01-14 07:44:41 51°18.32 2°55.271 7.844353 3.524683 33.941008 -0.343027
2005-01-14 07:44:45 51°18.33 2°55.287 7.848329 3.525632 33.950344 -0.376736
2005-01-14 07:44:51 51°18.345 2°55.312 7.846289 3.525632 33.951159 -0.376736
2005-01-14 07:44:55 51°18.354 2°55.329 7.847806 3.516466 33.853059 -0.309317
2005-01-14 07:45:01 51°18.369 2°55.355 7.847806 3.516466 33.853059 -0.309317
2005-01-14 07:45:05 51°18.379 2°55.371 7.847178 3.522155 33.915571 -0.343027
2005-01-14 07:45:09 51°18.389 2°55.389 7.846237 3.516993 33.859508 -0.309317
2005-01-14 07:45:15 51°18.403 2°55.415 7.851049 3.522682 33.922023 -0.309317
2005-01-14 07:45:21 51°18.418 2°55.44 7.848643 3.514675 33.834707 -0.343027
2005-01-14 07:45:25 51°18.427 2°55.458 7.853246 3.525526 33.950031 -0.343027
2005-01-14 07:45:31 51°18.441 2°55.484 7.853246 3.503718 33.715883 -0.241899
2005-01-14 07:45:35 51°18.451 2°55.501 7.853246 3.503718 33.715883 -0.241899
2005-01-14 07:45:41 51°18.466 2°55.526 7.850369 3.525948 33.953727 -0.343027
2005-01-14 07:45:45 51°18.476 2°55.544 7.849218 3.521101 33.901041 -0.241899
2005-01-14 07:45:50 51°18.488 2°55.564 7.846498 3.523525 33.926161 -0.343027
2005-01-14 07:45:55 51°18.501 2°55.585 7.849114 3.512673 33.809234 -0.208189
2005-01-14 07:46:01 51°18.515 2°55.61 7.849114 3.512673 33.809234 -0.208189
2005-01-14 07:46:05 51°18.525 2°55.627 7.845975 3.523735 33.928417 -0.208189
2005-01-14 07:46:11 51°18.54 2°55.652 7.84451 3.512568 33.81054 -0.208189
2005-01-14 07:46:15 51°18.55 2°55.67 7.842156 3.524578 33.940695 -0.343027
2005-01-14 07:46:21 51°18.565 2°55.695 7.844667 3.524684 33.942637 -0.343027
2005-01-14 07:46:25 51°18.575 2°55.712 7.842313 3.513937 33.827628 -0.208189
2005-01-14 07:46:31 51°18.589 2°55.738 7.842313 3.513937 33.827628 -0.208189
2005-01-14 07:46:35 51°18.599 2°55.755 7.851258 3.524051 33.936685 -0.376736
2005-01-14 07:46:41 51°18.614 2°55.781 7.847754 3.524262 33.940569 -0.309317
2005-01-14 07:46:45 51°18.624 2°55.798 7.841005 3.522682 33.922023 -0.376736
2005-01-14 07:46:49 51°18.634 2°55.816 7.84043 3.518678 33.880799 -0.309317
2005-01-14 07:46:55 51°18.648 2°55.841 7.839906 3.521839 33.913815 -0.275608
2005-01-14 07:47:01 51°18.663 2°55.866 7.841685 3.516466 33.854684 -0.241899
2005-01-14 07:47:05 51°18.673 2°55.884 7.841685 3.516466 33.854684 -0.241899
2005-01-14 07:47:10 51°18.685 2°55.905 7.843621 3.526369 33.961498 -0.376736
2005-01-14 07:47:15 51°18.698 2°55.927 7.843464 3.51478 33.840706 -0.275608
2005-01-14 07:47:21 51°18.713 2°55.953 7.842418 3.526264 33.96526 -0.309317
2005-01-14 07:47:26 51°18.724 2°55.974 7.84608 3.525316 33.954292 -0.275608
2005-01-14 07:47:29 51°18.732 2°55.986 7.839697 3.513621 33.829928 -0.208189
2005-01-14 07:47:35 51°18.746 2°56.013 7.839697 3.513621 33.829928 -0.208189
2005-01-14 07:47:41 51°18.76 2°56.039 7.832686 3.518362 33.879042 -0.208189
2005-01-14 07:47:45 51°18.77 2°56.056 7.836976 3.520469 33.902409 -0.309317
2005-01-14 07:47:50 51°18.781 2°56.079 7.830174 3.527107 33.97347 -0.241899
2005-01-14 07:47:55 51°18.793 2°56.1 7.828866 3.525316 33.955922 -0.343027
2005-01-14 07:48:01 51°18.806 2°56.127 7.833157 3.52205 33.921769 -0.275608
2005-01-14 07:48:05 51°18.816 2°56.144 7.833157 3.52205 33.921769 -0.275608
2005-01-14 07:48:11 51°18.83 2°56.171 7.836819 3.523841 33.942574 -0.275608
2005-01-14 07:48:15 51°18.839 2°56.188 7.837186 3.518889 33.892814 -0.309317
2005-01-14 07:48:21 51°18.853 2°56.215 7.831953 3.526475 33.974855 -0.275608
2005-01-14 07:48:25 51°18.862 2°56.232 7.827872 3.521944 33.92634 -0.275608
2005-01-14 07:48:31 51°18.876 2°56.259 7.829285 3.516993 33.873325 -0.208189
2005-01-14 07:48:35 51°18.886 2°56.277 7.829285 3.516993 33.873325 -0.208189
2005-01-14 07:48:41 51°18.899 2°56.303 7.829128 3.522577 33.933109 -0.208189
2005-01-14 07:48:45 51°18.909 2°56.321 7.821906 3.50119 33.705017 -0.309317
2005-01-14 07:48:51 51°18.923 2°56.347 7.822377 3.524578 33.95699 -0.275608
2005-01-14 07:48:55 51°18.932 2°56.365 7.822691 3.525948 33.972475 -0.241899
2005-01-14 07:49:01 51°18.946 2°56.391 7.822691 3.525948 33.972475 -0.241899
2005-01-14 07:49:05 51°18.955 2°56.41 7.816777 3.522366 33.936555 -0.343027
2005-01-14 07:49:09 51°18.965 2°56.427 7.826407 3.513832 33.846803 -0.241899
2005-01-14 07:49:15 51°18.979 2°56.452 7.825726 3.524894 33.966083 -0.275608
2005-01-14 07:49:21 51°18.993 2°56.479 7.821278 3.515939 33.871803 -0.275608
2005-01-14 07:49:25 51°19.002 2°56.496 7.821488 3.524895 33.969346 -0.241899
2005-01-14 07:49:31 51°19.015 2°56.524 7.824209 3.520786 33.923703 -0.208189
2005-01-14 07:49:35 51°19.024 2°56.543 7.824209 3.520786 33.923703 -0.208189
2005-01-14 07:49:41 51°19.037 2°56.57 7.820755 3.522998 33.94577 -0.107061
2005-01-14 07:49:45 51°19.046 2°56.588 7.818976 3.519943 33.913862 -0.309317
2005-01-14 07:49:51 51°19.058 2°56.616 7.811334 3.524684 33.966273 -0.241899
2005-01-14 07:49:55 51°19.067 2°56.634 7.80856 3.522682 33.945645 -0.343027
2005-01-14 07:50:01 51°19.079 2°56.662 7.80856 3.522682 33.945645 -0.343027
2005-01-14 07:50:05 51°19.088 2°56.68 7.805105 3.508143 33.789148 -0.275608
2005-01-14 07:50:10 51°19.099 2°56.703 7.807461 3.522998 33.952292 -0.309317
2005-01-14 07:50:15 51°19.11 2°56.726 7.80432 3.514886 33.868654 -0.275608
2005-01-14 07:50:21 51°19.123 2°56.753 7.805158 3.517414 33.898179 -0.309317
2005-01-14 07:50:25 51°19.131 2°56.771 7.808194 3.522261 33.95173 -0.14077
2005-01-14 07:50:30 51°19.143 2°56.794 7.801703 3.518889 33.917238 -0.275608
2005-01-14 07:50:35 51°19.153 2°56.816 7.801703 3.518889 33.917238 -0.275608
2005-01-14 07:50:41 51°19.167 2°56.844 7.803273 3.52068 33.938058 -0.376736
2005-01-14 07:50:45 51°19.174 2°56.862 7.79563 3.520259 33.931912 -0.275608
2005-01-14 07:50:50 51°19.185 2°56.886 7.796625 3.520681 33.939689 -0.208189
2005-01-14 07:50:54 51°19.194 2°56.904 7.799818 3.520681 33.940505 -0.17448
2005-01-14 07:51:01 51°19.209 2°56.936 7.80343 3.520997 33.944707 -0.208189
2005-01-14 07:51:05 51°19.217 2°56.955 7.80343 3.520997 33.944707 -0.208189
2005-01-14 07:51:10 51°19.227 2°56.978 7.805001 3.522261 33.960704 -0.241899
2005-01-14 07:51:15 51°19.237 2°57.001 7.793012 3.520259 33.940881 -0.309317
2005-01-14 07:51:21 51°19.249 2°57.03 7.791127 3.518152 33.919115 -0.376736
2005-01-14 07:51:25 51°19.257 2°57.049 7.795159 3.508144 33.810256 -0.17448
2005-01-14 07:51:30 51°19.266 2°57.073 7.795839 3.51752 33.909896 -0.275608
2005-01-14 07:51:34 51°19.274 2°57.093 7.795839 3.51752 33.909896 -0.275608
2005-01-14 07:51:41 51°19.287 2°57.127 7.798562 3.517204 33.908954 -0.376736
2005-01-14 07:51:45 51°19.294 2°57.146 7.794688 3.516361 33.902366 -0.275608
2005-01-14 07:51:49 51°19.302 2°57.165 7.796049 3.517836 33.919803 -0.073352
2005-01-14 07:51:55 51°19.312 2°57.195 7.794373 3.518995 33.93304 -0.275608
2005-01-14 07:52:01 51°19.323 2°57.224 7.792384 3.512884 33.865925 -0.241899
2005-01-14 07:52:05 51°19.331 2°57.243 7.792384 3.512884 33.865925 -0.241899
2005-01-14 07:52:11 51°19.341 2°57.273 7.792436 3.516888 33.908011 -0.309317
2005-01-14 07:52:15 51°19.348 2°57.293 7.791442 3.5191 33.931723 -0.208189
2005-01-14 07:52:21 51°19.36 2°57.321 7.790866 3.520154 33.943831 -0.241899
2005-01-14 07:52:25 51°19.367 2°57.34 7.784321 3.517309 33.915788 -0.241899
2005-01-14 07:52:29 51°19.375 2°57.36 7.784321 3.517309 33.915788 -0.241899
2005-01-14 07:52:35 51°19.386 2°57.389 7.783902 3.517204 33.915474 -0.309317
2005-01-14 07:52:41 51°19.398 2°57.417 7.775575 3.520575 33.950795 -0.275608
2005-01-14 07:52:45 51°19.405 2°57.436 7.779398 3.520154 33.94791 -0.275608
2005-01-14 07:52:50 51°19.415 2°57.46 7.78563 3.503403 33.77084 -0.275608
2005-01-14 07:52:55 51°19.425 2°57.484 7.783483 3.517942 33.929902 -0.241899
2005-01-14 07:53:01 51°19.436 2°57.513 7.783483 3.517942 33.929902 -0.241899
2005-01-14 07:53:05 51°19.443 2°57.532 7.781231 3.518047 33.934295 -0.14077
2005-01-14 07:53:10 51°19.452 2°57.556 7.77479 3.507301 33.819919 -0.376736
2005-01-14 07:53:15 51°19.462 2°57.58 7.773062 3.514254 33.894448 -0.208189
2005-01-14 07:53:21 51°19.472 2°57.609 7.771857 3.515834 33.910575 -0.17448
2005-01-14 07:53:25 51°19.479 2°57.629 7.773847 3.51457 33.896207 -0.275608
2005-01-14 07:53:31 51°19.49 2°57.658 7.773847 3.51457 33.896207 -0.275608
2005-01-14 07:53:35 51°19.497 2°57.678 7.767877 3.513833 33.889931 -0.208189
2005-01-14 07:53:41 51°19.507 2°57.708 7.766934 3.515729 33.914338 -0.309317
2005-01-14 07:53:45 51°19.514 2°57.728 7.773009 3.518047 33.940823 -0.17448
2005-01-14 07:53:51 51°19.524 2°57.757 7.767458 3.518258 33.943083 -0.309317
2005-01-14 07:53:55 51°19.531 2°57.777 7.770391 3.518152 33.942769 -0.14077
2005-01-14 07:54:01 51°19.541 2°57.806 7.765467 3.517204 33.935866 -0.343027
2005-01-14 07:54:05 51°19.548 2°57.826 7.765467 3.517204 33.935866 -0.343027
2005-01-14 07:54:09 51°19.554 2°57.846 7.764525 3.517942 33.944591 -0.208189
2005-01-14 07:54:15 51°19.565 2°57.875 7.764734 3.515519 33.919419 -0.343027
2005-01-14 07:54:21 51°19.575 2°57.904 7.761015 3.517836 33.945094 -0.275608
2005-01-14 07:54:25 51°19.581 2°57.924 7.759967 3.511515 33.877303 -0.376736
2005-01-14 07:54:30 51°19.59 2°57.949 7.761801 3.515835 33.926073 -0.208189
2005-01-14 07:54:35 51°19.598 2°57.973 7.761801 3.515835 33.926073 -0.208189
2005-01-14 07:54:41 51°19.609 2°58.003 7.761382 3.513622 33.903975 -0.275608
2005-01-14 07:54:45 51°19.616 2°58.022 7.751062 3.516467 33.936118 -0.275608
2005-01-14 07:54:49 51°19.623 2°58.041 7.755253 3.516783 33.941142 -0.309317
2005-01-14 07:54:55 51°19.633 2°58.071 7.749176 3.51436 33.91678 -0.275608
2005-01-14 07:55:01 51°19.642 2°58.101 7.740898 3.515097 33.924692 -0.14077
2005-01-14 07:55:05 51°19.65 2°58.12 7.740898 3.515097 33.924692 -0.14077
2005-01-14 07:55:11 51°19.659 2°58.15 7.744565 3.496029 33.724277 -0.309317
2005-01-14 07:55:15 51°19.665 2°58.17 7.75321 3.503614 33.807228 -0.208189
2005-01-14 07:55:21 51°19.675 2°58.199 7.74729 3.515308 33.933483 -0.14077
2005-01-14 07:55:25 51°19.682 2°58.218 7.745089 3.50983 33.878786 -0.17448
2005-01-14 07:55:31 51°19.691 2°58.249 7.737806 3.510462 33.888014 -0.241899
2005-01-14 07:55:35 51°19.697 2°58.27 7.737806 3.510462 33.888014 -0.241899
2005-01-14 07:55:41 51°19.706 2°58.3 7.740898 3.504246 33.81889 -0.005933
2005-01-14 07:55:45 51°19.711 2°58.321 7.745928 3.512042 33.902523 -0.005933
2005-01-14 07:55:51 51°19.718 2°58.352 7.740112 3.506458 33.844249 0.027777
2005-01-14 07:55:55 51°19.724 2°58.373 7.735029 3.511305 33.898689 -0.107061
2005-01-14 07:56:01 51°19.731 2°58.403 7.733824 3.512358 33.910811 -0.039642
2005-01-14 07:56:05 51°19.736 2°58.424 7.733824 3.512358 33.910811 -0.039642
2005-01-14 07:56:09 51°19.74 2°58.445 7.732094 3.509724 33.882548 -0.039642
2005-01-14 07:56:15 51°19.747 2°58.476 7.729998 3.50825 33.868354 -0.005933
2005-01-14 07:56:21 51°19.755 2°58.508 7.734505 3.510462 33.893725 -0.073352
2005-01-14 07:56:25 51°19.76 2°58.529 7.727063 3.509198 33.882606 -0.073352
2005-01-14 07:56:31 51°19.767 2°58.56 7.727063 3.509198 33.882606 -0.073352
2005-01-14 07:56:36 51°19.773 2°58.586 7.728059 3.510357 33.896675 -0.039642
2005-01-14 07:56:41 51°19.779 2°58.611 7.726068 3.504773 33.83757 -0.039642
2005-01-14 07:56:45 51°19.782 2°58.633 7.732356 3.507301 33.866333 -0.107061
2005-01-14 07:56:51 51°19.789 2°58.664 7.727063 3.488233 33.663402 -0.241899
2005-01-14 07:56:55 51°19.794 2°58.685 7.732356 3.504036 33.83373 -0.208189
2005-01-14 07:57:01 51°19.8 2°58.716 7.732356 3.504036 33.83373 -0.208189
2005-01-14 07:57:05 51°19.805 2°58.737 7.725858 3.506775 33.864757 -0.17448
2005-01-14 07:57:10 51°19.81 2°58.764 7.72874 3.502982 33.82324 -0.14077
2005-01-14 07:57:15 51°19.815 2°58.79 7.723919 3.506985 33.867834 -0.039642
2005-01-14 07:57:21 51°19.822 2°58.822 7.728583 3.507828 33.875249 -0.039642
2005-01-14 07:57:25 51°19.826 2°58.843 7.724338 3.504246 33.835991 -0.039642
2005-01-14 07:57:31 51°19.833 2°58.874 7.721455 3.502034 33.813065 -0.14077
2005-01-14 07:57:35 51°19.838 2°58.895 7.721455 3.502034 33.813065 -0.14077
2005-01-14 07:57:41 51°19.845 2°58.926 7.718887 3.506775 33.865572 -0.241899
2005-01-14 07:57:45 51°19.849 2°58.946 7.72177 3.504246 33.840881 -0.107061
2005-01-14 07:57:51 51°19.857 2°58.977 7.721822 3.504352 33.842011 -0.073352
2005-01-14 07:57:55 51°19.861 2°58.998 7.723395 3.499716 33.793079 -0.039642
2005-01-14 07:58:01 51°19.869 2°59.029 7.718101 3.500454 33.804249 -0.073352
2005-01-14 07:58:05 51°19.873 2°59.05 7.718101 3.500454 33.804249 -0.073352
2005-01-14 07:58:10 51°19.879 2°59.076 7.725177 3.503298 33.833964 -0.241899
2005-01-14 07:58:15 51°19.885 2°59.102 7.724495 3.503404 33.836725 -0.241899
2005-01-14 07:58:21 51°19.892 2°59.133 7.723814 3.50098 33.809088 0.061486
2005-01-14 07:58:25 51°19.897 2°59.154 7.723237 3.50077 33.807641 -0.208189
2005-01-14 07:58:31 51°19.904 2°59.186 7.726015 3.501297 33.811666 -0.17448
2005-01-14 07:58:35 51°19.909 2°59.207 7.726015 3.501297 33.811666 -0.17448
2005-01-14 07:58:41 51°19.915 2°59.238 7.718415 3.494975 33.743838 -0.14077
2005-01-14 07:58:45 51°19.92 2°59.259 7.722242 3.495081 33.744155 -0.14077
2005-01-14 07:58:51 51°19.926 2°59.29 7.722766 3.498031 33.776619 -0.14077
2005-01-14 07:58:55 51°19.931 2°59.311 7.722923 3.502771 33.824237 -0.208189
2005-01-14 07:59:01 51°19.937 2°59.342 7.719516 3.500875 33.807143 -0.073352
2005-01-14 07:59:05 51°19.941 2°59.363 7.719516 3.500875 33.807143 -0.073352
2005-01-14 07:59:11 51°19.949 2°59.394 7.721089 3.502666 33.827994 -0.208189
2005-01-14 07:59:15 51°19.953 2°59.416 7.717944 3.501507 33.813927 -0.17448
2005-01-14 07:59:21 51°19.96 2°59.446 7.718049 3.50098 33.808274 -0.005933
2005-01-14 07:59:25 51°19.965 2°59.467 7.728164 3.500875 33.809586 -0.208189
2005-01-14 07:59:30 51°19.971 2°59.493 7.718573 3.501402 33.816055 -0.107061
2005-01-14 07:59:35 51°19.977 2°59.519 7.718573 3.501402 33.816055 -0.107061
2005-01-14 07:59:41 51°19.984 2°59.55 7.716004 3.501929 33.820894 -0.17448
2005-01-14 07:59:45 51°19.989 2°59.571 7.723552 3.499927 33.800225 -0.073352
2005-01-14 07:59:51 51°19.996 2°59.602 7.726854 3.499716 33.796335 -0.17448
2005-01-14 07:59:55 51°20 2°59.623 7.719673 3.500559 33.80538 -0.107061
2005-01-14 08:00:01 51°20.007 2°59.654 7.719673 3.500559 33.80538 -0.107061
2005-01-14 08:00:05 51°20.012 2°59.675 7.72177 3.501086 33.812662 -0.107061
2005-01-14 08:00:09 51°20.017 2°59.696 7.719307 3.501297 33.815738 -0.14077
2005-01-14 08:00:16 51°20.025 2°59.733 7.725124 3.501191 33.812979 -0.005933
2005-01-14 08:00:21 51°20.03 2°59.759 7.7235 3.498452 33.781954 -0.073352
2005-01-14 08:00:25 51°20.035 2°59.779 7.734191 3.498031 33.77906 -0.17448
2005-01-14 08:00:31 51°20.041 2°59.811 7.725596 3.495608 33.753872 -0.107061
2005-01-14 08:00:35 51°20.046 2°59.832 7.725596 3.495608 33.753872 -0.107061
2005-01-14 08:00:41 51°20.052 2°59.863 7.726068 3.495608 33.753059 -0.241899
2005-01-14 08:00:45 51°20.056 2°59.884 7.733509 3.496977 33.767754 -0.107061
2005-01-14 08:00:51 51°20.062 2°59.915 7.732723 3.497715 33.769161 -0.208189
2005-01-14 08:00:55 51°20.067 2°59.936 7.725124 3.500243 33.795476 -0.17448
2005-01-14 08:01:01 51°20.073 2°59.967 7.731099 3.49034 33.690053 -0.275608
2005-01-14 08:01:05 51°20.078 2°59.988 7.731099 3.49034 33.690053 -0.275608
2005-01-14 08:01:10 51°20.084 3°0.014 7.719778 3.493079 33.717809 -0.14077
2005-01-14 08:01:16 51°20.091 3°0.045 7.726697 3.495291 33.740728 -0.107061
2005-01-14 08:01:21 51°20.097 3°0.07 7.720931 3.472852 33.502563 -0.107061
2005-01-14 08:01:26 51°20.103 3°0.096 7.725072 3.484651 33.629855 -0.208189
2005-01-14 08:01:31 51°20.11 3°0.122 7.725753 3.491288 33.701034 -0.241899
2005-01-14 08:01:35 51°20.115 3°0.142 7.725753 3.491288 33.701034 -0.241899
2005-01-14 08:01:41 51°20.121 3°0.173 7.726434 3.489708 33.684896 -0.17448
2005-01-14 08:01:45 51°20.126 3°0.194 7.723395 3.493395 33.726072 -0.039642
2005-01-14 08:01:51 51°20.133 3°0.225 7.71894 3.483176 33.617279 -0.14077
2005-01-14 08:01:55 51°20.138 3°0.246 7.729631 3.470324 33.478694 -0.208189
2005-01-14 08:02:01 51°20.144 3°0.277 7.720198 3.497609 33.77047 -0.17448
2005-01-14 08:02:05 51°20.148 3°0.297 7.720198 3.497609 33.77047 -0.17448
2005-01-14 08:02:09 51°20.152 3°0.318 7.717944 3.497082 33.763192 -0.208189
2005-01-14 08:02:15 51°20.159 3°0.349 7.715061 3.494449 33.737374 -0.14077
2005-01-14 08:02:21 51°20.165 3°0.381 7.711811 3.494975 33.743025 -0.17448
2005-01-14 08:02:25 51°20.169 3°0.401 7.708403 3.490867 33.69976 -0.107061
2005-01-14 08:02:31 51°20.176 3°0.432 7.706044 3.493922 33.73416 -0.17448
2005-01-14 08:02:36 51°20.181 3°0.459 7.706044 3.493922 33.73416 -0.17448
2005-01-14 08:02:41 51°20.185 3°0.485 7.71375 3.492868 33.724482 -0.14077
2005-01-14 08:02:45 51°20.189 3°0.506 7.702008 3.489708 33.694633 -0.14077
2005-01-14 08:02:51 51°20.193 3°0.538 7.707827 3.491394 33.714343 -0.208189
2005-01-14 08:02:55 51°20.196 3°0.559 7.70573 3.49034 33.703851 -0.241899
2005-01-14 08:03:01 51°20.201 3°0.591 7.696555 3.485494 33.651859 -0.17448
2005-01-14 08:03:05 51°20.204 3°0.613 7.696555 3.485494 33.651859 -0.17448
2005-01-14 08:03:10 51°20.207 3°0.64 7.694248 3.487285 33.671883 -0.107061
2005-01-14 08:03:16 51°20.212 3°0.671 7.691521 3.486548 33.666405 -0.208189
2005-01-14 08:03:21 51°20.215 3°0.698 7.6943 3.461791 33.401744 -0.241899
2005-01-14 08:03:26 51°20.22 3°0.724 7.681977 3.471062 33.50354 -0.14077
2005-01-14 08:03:30 51°20.223 3°0.745 7.68591 3.485284 33.661764 -0.208189
2005-01-14 08:03:35 51°20.228 3°0.771 7.68591 3.485284 33.661764 -0.208189
2005-01-14 08:03:41 51°20.234 3°0.802 7.684442 3.484651 33.658225 -0.208189
2005-01-14 08:03:46 51°20.239 3°0.828 7.679565 3.484335 33.656456 -0.073352
2005-01-14 08:03:50 51°20.244 3°0.848 7.687274 3.482439 33.639349 -0.241899
2005-01-14 08:03:55 51°20.248 3°0.874 7.686172 3.48107 33.627893 -0.241899
2005-01-14 08:04:01 51°20.254 3°0.905 7.679984 3.483282 33.654074 -0.073352
2005-01-14 08:04:05 51°20.258 3°0.926 7.679984 3.483282 33.654074 -0.073352
2005-01-14 08:04:11 51°20.263 3°0.957 7.682134 3.476645 33.583648 -0.275608
2005-01-14 08:04:15 51°20.268 3°0.978 7.683236 3.482545 33.648591 -0.14077
2005-01-14 08:04:21 51°20.272 3°1.009 7.690892 3.482439 33.64746 -0.208189
2005-01-14 08:04:25 51°20.275 3°1.03 7.685858 3.46611 33.469811 -0.14077
2005-01-14 08:04:29 51°20.278 3°1.052 7.685858 3.46611 33.469811 -0.14077
2005-01-14 08:04:35 51°20.283 3°1.083 7.681715 3.478647 33.60513 -0.275608
2005-01-14 08:04:41 51°20.288 3°1.114 7.684127 3.482966 33.652304 -0.309317
2005-01-14 08:04:45 51°20.29 3°1.135 7.68806 3.482545 33.646969 -0.039642
2005-01-14 08:04:49 51°20.294 3°1.156 7.686172 3.48107 33.629515 -0.241899
2005-01-14 08:04:56 51°20.3 3°1.193 7.688742 3.478015 33.599156 -0.275608
2005-01-14 08:05:01 51°20.303 3°1.219 7.695454 3.485073 33.674112 -0.208189
2005-01-14 08:05:05 51°20.306 3°1.24 7.695454 3.485073 33.674112 -0.208189
2005-01-14 08:05:10 51°20.311 3°1.266 7.691469 3.485705 33.679274 -0.208189
2005-01-14 08:05:15 51°20.315 3°1.292 7.695663 3.486653 33.689453 -0.241899
2005-01-14 08:05:21 51°20.321 3°1.322 7.697184 3.486653 33.689453 -0.275608
2005-01-14 08:05:25 51°20.324 3°1.343 7.701903 3.486443 33.685566 -0.275608
2005-01-14 08:05:31 51°20.33 3°1.374 7.695821 3.486759 33.688147 -0.17448
2005-01-14 08:05:35 51°20.334 3°1.394 7.695821 3.486759 33.688147 -0.17448
2005-01-14 08:05:41 51°20.34 3°1.425 7.698652 3.480543 33.618187 -0.241899
2005-01-14 08:05:45 51°20.344 3°1.446 7.700435 3.483177 33.646452 -0.17448
2005-01-14 08:05:51 51°20.349 3°1.476 7.70358 3.486969 33.685536 -0.208189
2005-01-14 08:05:56 51°20.353 3°1.503 7.703528 3.485389 33.667763 -0.14077
2005-01-14 08:06:01 51°20.357 3°1.528 7.703004 3.487074 33.682607 -0.14077
2005-01-14 08:06:05 51°20.359 3°1.549 7.703004 3.487074 33.682607 -0.14077
2005-01-14 08:06:09 51°20.361 3°1.57 7.704891 3.488233 33.693421 -0.208189
2005-01-14 08:06:15 51°20.365 3°1.602 7.699281 3.487391 33.682752 -0.208189
2005-01-14 08:06:20 51°20.368 3°1.628 7.696607 3.486126 33.666751 -0.343027
2005-01-14 08:06:25 51°20.372 3°1.654 7.693409 3.477698 33.577143 -0.107061
2005-01-14 08:06:31 51°20.378 3°1.684 7.691311 3.484019 33.645765 -0.343027
2005-01-14 08:06:35 51°20.381 3°1.705 7.691311 3.484019 33.645765 -0.343027
2005-01-14 08:06:41 51°20.387 3°1.735 7.696712 3.4856 33.665155 -0.241899
2005-01-14 08:06:45 51°20.392 3°1.755 7.697341 3.476961 33.573278 -0.208189
2005-01-14 08:06:51 51°20.399 3°1.785 7.695034 3.484757 33.659356 -0.14077
2005-01-14 08:06:55 51°20.403 3°1.805 7.697813 3.482545 33.637236 -0.073352
2005-01-14 08:07:01 51°20.41 3°1.834 7.687483 3.466216 33.462874 -0.241899
2005-01-14 08:07:05 51°20.415 3°1.854 7.687483 3.466216 33.462874 -0.241899
2005-01-14 08:07:09 51°20.419 3°1.874 7.692255 3.483493 33.645789 -0.107061
2005-01-14 08:07:15 51°20.425 3°1.904 7.689528 3.483703 33.648861 -0.208189
2005-01-14 08:07:21 51°20.431 3°1.934 7.669074 3.475276 33.56005 -0.208189
2005-01-14 08:07:25 51°20.434 3°1.955 7.667553 3.484335 33.656456 -0.275608
2005-01-14 08:07:30 51°20.438 3°1.98 7.667553 3.484335 33.656456 -0.275608
2005-01-14 08:07:35 51°20.441 3°2.007 7.629722 3.484335 33.658079 -0.17448
2005-01-14 08:07:41 51°20.445 3°2.037 7.605364 3.48423 33.658571 -0.039642
2005-01-14 08:07:45 51°20.448 3°2.057 7.595808 3.479279 33.610293 -0.275608
2005-01-14 08:07:51 51°20.453 3°2.087 7.585514 3.476856 33.59644 -0.208189
2005-01-14 08:07:54 51°20.455 3°2.103 7.556201 3.454944 33.378231 -0.208189
2005-01-14 08:08:01 51°20.461 3°2.139 7.542854 3.466848 33.523796 -0.309317
2005-01-14 08:08:05 51°20.465 3°2.158 7.542854 3.466848 33.523796 -0.309317
2005-01-14 08:08:11 51°20.471 3°2.187 7.548845 3.458105 33.447661 -0.241899
2005-01-14 08:08:15 51°20.475 3°2.207 7.520146 3.454839 33.427117 -0.275608
2005-01-14 08:08:21 51°20.481 3°2.237 7.508316 3.449783 33.389733 -0.241899
2005-01-14 08:08:26 51°20.487 3°2.262 7.493696 3.438512 33.28631 -0.275608
2005-01-14 08:08:31 51°20.492 3°2.287 7.492276 3.439987 33.311837 -0.275608
2005-01-14 08:08:35 51°20.496 3°2.307 7.492276 3.439987 33.311837 -0.275608
2005-01-14 08:08:41 51°20.503 3°2.337 7.473181 3.434193 33.262424 -0.208189
2005-01-14 08:08:45 51°20.506 3°2.357 7.465763 3.430401 33.234518 -0.275608
2005-01-14 08:08:50 51°20.51 3°2.382 7.445555 3.425977 33.201407 -0.275608
2005-01-14 08:08:55 51°20.514 3°2.404 7.435817 3.420183 33.150325 -0.275608
2005-01-14 08:09:01 51°20.517 3°2.43 7.442397 3.415864 33.115095 -0.275608
2005-01-14 08:09:05 51°20.518 3°2.448 7.442397 3.415864 33.115095 -0.275608
2005-01-14 08:09:10 51°20.519 3°2.468 7.424288 3.413863 33.103191 -0.309317
2005-01-14 08:09:15 51°20.521 3°2.486 7.413547 3.411019 33.081406 -0.241899
2005-01-14 08:09:21 51°20.523 3°2.505 7.417865 3.405436 33.033333 -0.208189
2005-01-14 08:09:25 51°20.525 3°2.516 7.408386 3.404489 33.030343 -0.17448
2005-01-14 08:09:31 51°20.529 3°2.53 7.398379 3.399538 32.985043 -0.14077
2005-01-14 08:09:36 51°20.532 3°2.541 7.398379 3.399538 32.985043 -0.14077
2005-01-14 08:09:41 51°20.536 3°2.55 7.39385 3.399433 32.991121 -0.073352
2005-01-14 08:09:45 51°20.54 3°2.555 7.389741 3.396799 32.969965 -0.241899
2005-01-14 08:09:50 51°20.544 3°2.563 7.375622 3.395219 32.958551 -0.208189
2005-01-14 08:09:53 51°20.547 3°2.566 7.347006 3.390479 32.913888 -0.107061
2005-01-14 08:10:01 51°20.553 3°2.574 7.343527 3.388478 32.899525 -0.208189
2005-01-14 08:10:05 51°20.556 3°2.578 7.343527 3.388478 32.899525 -0.208189
2005-01-14 08:10:10 51°20.56 3°2.583 7.32713 3.373416 32.742854 -0.073352
2005-01-14 08:10:15 51°20.564 3°2.586 7.305192 3.385002 32.877263 -0.241899
2005-01-14 08:10:21 51°20.569 3°2.59 7.291002 3.376576 32.801617 -0.343027
2005-01-14 08:10:25 51°20.572 3°2.591 7.276017 3.374785 32.795088 -0.107061
2005-01-14 08:10:31 51°20.576 3°2.593 7.259552 3.371099 32.768905 -0.241899
2005-01-14 08:10:35 51°20.578 3°2.595 7.259552 3.371099 32.768905 -0.241899
2005-01-14 08:10:41 51°20.582 3°2.594 7.256965 3.368782 32.759875 -0.14077
2005-01-14 08:10:45 51°20.585 3°2.595 7.227822 3.363937 32.724353 -0.005933
2005-01-14 08:10:51 51°20.589 3°2.593 7.221168 3.359934 32.694713 0.027777
2005-01-14 08:10:55 51°20.591 3°2.593 7.202734 3.35214 32.625711 -0.073352
2005-01-14 08:11:01 51°20.594 3°2.591 7.202364 3.350771 32.619687 -0.073352
2005-01-14 08:11:05 51°20.596 3°2.589 7.202364 3.350771 32.619687 -0.073352
2005-01-14 08:11:09 51°20.598 3°2.587 7.187095 3.348981 32.615482 -0.14077
2005-01-14 08:11:15 51°20.6 3°2.583 7.192432 3.345926 32.597618 -0.005933
2005-01-14 08:11:21 51°20.602 3°2.58 7.187676 3.341187 32.556748 -0.14077
2005-01-14 08:11:25 51°20.604 3°2.577 7.180331 3.338659 32.542957 -0.005933
2005-01-14 08:11:30 51°20.605 3°2.574 7.180331 3.338659 32.542957 -0.005933
2005-01-14 08:11:35 51°20.606 3°2.57 7.177319 3.335289 32.517658 0.027777
2005-01-14 08:11:41 51°20.608 3°2.566 7.179591 3.334868 32.514694 -0.005933
2005-01-14 08:11:46 51°20.609 3°2.563 7.178323 3.331708 32.480529 -0.14077
2005-01-14 08:11:51 51°20.61 3°2.559 7.186144 3.33234 32.491337 0.061486
2005-01-14 08:11:55 51°20.611 3°2.556 7.180173 3.329707 32.468428 -0.005933
2005-01-14 08:12:01 51°20.612 3°2.552 7.17642 3.327811 32.449516 -0.039642
2005-01-14 08:12:05 51°20.612 3°2.549 7.17642 3.327811 32.449516 -0.039642
2005-01-14 08:12:09 51°20.613 3°2.546 7.175152 3.329075 32.463978 -0.14077
2005-01-14 08:12:15 51°20.613 3°2.542 7.174782 3.328022 32.454178 -0.107061
2005-01-14 08:12:21 51°20.613 3°2.538 7.17251 3.328654 32.463396 -0.039642
2005-01-14 08:12:25 51°20.613 3°2.535 7.181599 3.328022 32.457356 0.027777
2005-01-14 08:12:31 51°20.613 3°2.531 7.169444 3.328022 32.458151 0.061486
2005-01-14 08:12:35 51°20.614 3°2.528 7.169444 3.328022 32.458151 0.061486
2005-01-14 08:12:41 51°20.614 3°2.524 7.167911 3.326863 32.448004 -0.073352
2005-01-14 08:12:45 51°20.614 3°2.521 7.18012 3.326442 32.445036 0.128905
2005-01-14 08:12:50 51°20.615 3°2.518 7.177953 3.325389 32.431262 -0.005933
2005-01-14 08:12:55 51°20.615 3°2.514 7.174095 3.325283 32.430917 0.061486
2005-01-14 08:13:01 51°20.615 3°2.509 7.179908 3.324862 32.427154 0.061486
2005-01-14 08:13:05 51°20.615 3°2.506 7.179908 3.324862 32.427154 0.061486
2005-01-14 08:13:11 51°20.616 3°2.502 7.18366 3.324441 32.421804 -0.005933
2005-01-14 08:13:15 51°20.616 3°2.499 7.195866 3.324125 32.419975 0.061486
2005-01-14 08:13:21 51°20.616 3°2.494 7.183819 3.316015 32.332283 -0.005933
2005-01-14 08:13:25 51°20.617 3°2.492 7.193647 3.327285 32.451766 0.027777
2005-01-14 08:13:31 51°20.617 3°2.487 7.191428 3.327916 32.455422 0.095195
2005-01-14 08:13:35 51°20.617 3°2.484 7.191428 3.327916 32.455422 0.095195
2005-01-14 08:13:41 51°20.617 3°2.479 7.198877 3.326758 32.438128 -0.073352
2005-01-14 08:13:45 51°20.618 3°2.476 7.203579 3.328654 32.458628 0.128905
2005-01-14 08:13:50 51°20.618 3°2.472 7.206273 3.326021 32.426981 0.061486
2005-01-14 08:13:55 51°20.618 3°2.468 7.213034 3.32918 32.459555 0.061486
2005-01-14 08:14:01 51°20.618 3°2.464 7.222541 3.328232 32.448512 -0.005933
2005-01-14 08:14:05 51°20.619 3°2.461 7.222541 3.328232 32.448512 -0.005933
2005-01-14 08:14:11 51°20.619 3°2.456 7.229829 3.331076 32.476081 0.162614
2005-01-14 08:14:15 51°20.619 3°2.453 7.231941 3.33234 32.485772 0.027777
2005-01-14 08:14:21 51°20.619 3°2.448 7.238541 3.331181 32.46848 0.128905
2005-01-14 08:14:25 51°20.619 3°2.445 7.236904 3.334552 32.498553 0.095195
2005-01-14 08:14:30 51°20.619 3°2.441 7.235426 3.337922 32.527826 0.297452
2005-01-14 08:14:35 51°20.62 3°2.437 7.235426 3.337922 32.527826 0.297452
2005-01-14 08:14:41 51°20.62 3°2.432 7.24097 3.337395 32.515773 0.128905
2005-01-14 08:14:45 51°20.62 3°2.429 7.243768 3.340344 32.540482 -0.073352
2005-01-14 08:14:51 51°20.62 3°2.424 7.243293 3.34066 32.542305 0.162614
2005-01-14 08:14:55 51°20.621 3°2.421 7.241128 3.341503 32.551409 0.128905
2005-01-14 08:15:01 51°20.621 3°2.416 7.241128 3.341503 32.551409 0.128905
2005-01-14 08:15:05 51°20.621 3°2.412 7.245405 3.341924 32.553574 0.128905
2005-01-14 08:15:09 51°20.621 3°2.409 7.245933 3.335815 32.485201 0.095195
2005-01-14 08:15:15 51°20.621 3°2.404 7.24873 3.337711 32.506472 0.128905
2005-01-14 08:15:21 51°20.621 3°2.4 7.24456 3.341713 32.548912 -0.005933
2005-01-14 08:15:26 51°20.621 3°2.395 7.259235 3.341187 32.541632 0.061486
2005-01-14 08:15:31 51°20.622 3°2.391 7.25839 3.342451 32.553695 -0.005933
2005-01-14 08:15:35 51°20.622 3°2.388 7.25839 3.342451 32.553695 -0.005933
2005-01-14 08:15:41 51°20.622 3°2.383 7.255118 3.342029 32.547553 0.128905
2005-01-14 08:15:45 51°20.622 3°2.379 7.262718 3.340555 32.532421 0.128905
2005-01-14 08:15:50 51°20.622 3°2.375 7.269949 3.338448 32.504904 0.061486
2005-01-14 08:15:55 51°20.622 3°2.371 7.267257 3.338869 32.506277 -0.039642
2005-01-14 08:16:01 51°20.622 3°2.366 7.260607 3.345716 32.579416 0.162614
2005-01-14 08:16:05 51°20.622 3°2.363 7.260607 3.345716 32.579416 0.162614
2005-01-14 08:16:10 51°20.622 3°2.359 7.260977 3.346558 32.58613 -0.073352
2005-01-14 08:16:15 51°20.622 3°2.354 7.259921 3.346769 32.585221 -0.039642
2005-01-14 08:16:21 51°20.622 3°2.349 7.261399 3.344662 32.560882 0.027777
2005-01-14 08:16:25 51°20.622 3°2.346 7.258179 3.346348 32.57908 0.128905
2005-01-14 08:16:31 51°20.622 3°2.341 7.258021 3.346558 32.582946 -0.005933
2005-01-14 08:16:36 51°20.622 3°2.337 7.258021 3.346558 32.582946 -0.005933
2005-01-14 08:16:41 51°20.622 3°2.332 7.255804 3.341292 32.527668 0.027777
2005-01-14 08:16:45 51°20.623 3°2.33 7.258971 3.347506 32.59398 0.196324
2005-01-14 08:16:51 51°20.622 3°2.324 7.259393 3.346558 32.584538 0.162614
2005-01-14 08:16:55 51°20.622 3°2.321 7.265568 3.346348 32.581467 -0.005933
2005-01-14 08:17:01 51°20.622 3°2.316 7.257388 3.341503 32.530737 -0.005933
2005-01-14 08:17:05 51°20.622 3°2.312 7.257388 3.341503 32.530737 -0.005933
2005-01-14 08:17:10 51°20.622 3°2.308 7.261135 3.336236 32.475466 -0.005933
2005-01-14 08:17:15 51°20.622 3°2.304 7.26541 3.34698 32.589088 0.061486
2005-01-14 08:17:21 51°20.622 3°2.299 7.261716 3.346979 32.587496 0.095195
2005-01-14 08:17:26 51°20.622 3°2.295 7.263352 3.34719 32.588975 0.027777
2005-01-14 08:17:31 51°20.621 3°2.291 7.263193 3.34561 32.573505 -0.073352
2005-01-14 08:17:35 51°20.622 3°2.287 7.263193 3.34561 32.573505 -0.073352
2005-01-14 08:17:41 51°20.621 3°2.283 7.265357 3.345926 32.575326 0.027777
2005-01-14 08:17:46 51°20.621 3°2.278 7.268841 3.346769 32.582834 -0.005933
2005-01-14 08:17:51 51°20.621 3°2.274 7.269632 3.346874 32.583176 -0.073352
2005-01-14 08:17:55 51°20.621 3°2.271 7.275595 3.347611 32.591933 0.128905
2005-01-14 08:18:01 51°20.621 3°2.266 7.275015 3.346137 32.574419 -0.005933
2005-01-14 08:18:05 51°20.62 3°2.263 7.275015 3.346137 32.574419 -0.005933
2005-01-14 08:18:09 51°20.62 3°2.26 7.280872 3.346979 32.582722 -0.073352
2005-01-14 08:18:15 51°20.62 3°2.255 7.271954 3.348349 32.597507 -0.039642
2005-01-14 08:18:21 51°20.62 3°2.25 7.277442 3.344136 32.547247 0.196324
2005-01-14 08:18:25 51°20.62 3°2.247 7.281294 3.340765 32.508485 0.027777
2005-01-14 08:18:30 51°20.62 3°2.243 7.28103 3.346242 32.566808 0.196324
2005-01-14 08:18:35 51°20.619 3°2.239 7.28103 3.346242 32.566808 0.196324
2005-01-14 08:18:41 51°20.619 3°2.234 7.272851 3.350245 32.612407 0.230033
2005-01-14 08:18:45 51°20.619 3°2.231 7.272482 3.346453 32.572263 -0.005933
2005-01-14 08:18:50 51°20.619 3°2.226 7.270054 3.350034 32.607744 0.027777
2005-01-14 08:18:55 51°20.619 3°2.222 7.271796 3.349402 32.598534 0.128905
2005-01-14 08:19:00 51°20.619 3°2.218 7.271796 3.349402 32.598534 0.128905
2005-01-14 08:19:05 51°20.618 3°2.214 7.27264 3.348243 32.586821 0.095195
2005-01-14 08:19:11 51°20.618 3°2.209 7.280872 3.346874 32.572835 0.128905
2005-01-14 08:19:15 51°20.618 3°2.206 7.283721 3.349613 32.603991 0.095195
2005-01-14 08:19:21 51°20.618 3°2.201 7.279869 3.348454 32.592278 0.128905
2005-01-14 08:19:25 51°20.618 3°2.198 7.280081 3.348981 32.597964 0.027777
2005-01-14 08:19:31 51°20.617 3°2.192 7.28446 3.349086 32.595122 0.061486
2005-01-14 08:19:35 51°20.617 3°2.188 7.28446 3.349086 32.595122 0.061486
2005-01-14 08:19:41 51°20.617 3°2.181 7.279658 3.350034 32.603765 0.196324
2005-01-14 08:19:45 51°20.617 3°2.177 7.278656 3.349718 32.601149 -0.005933
2005-01-14 08:19:51 51°20.617 3°2.17 7.277864 3.350982 32.613998 0.095195
2005-01-14 08:19:55 51°20.617 3°2.165 7.278709 3.350455 32.606721 0.162614
2005-01-14 08:20:01 51°20.617 3°2.158 7.285515 3.350455 32.606721 0.095195
2005-01-14 08:20:05 51°20.617 3°2.152 7.285515 3.350455 32.606721 0.095195
2005-01-14 08:20:10 51°20.617 3°2.146 7.285304 3.348981 32.591599 -0.073352
2005-01-14 08:20:15 51°20.618 3°2.14 7.294273 3.349507 32.599671 0.297452
2005-01-14 08:20:21 51°20.618 3°2.131 7.3015 3.350034 32.603765 0.061486
2005-01-14 08:20:25 51°20.619 3°2.126 7.30419 3.349823 32.598308 -0.005933
2005-01-14 08:20:29 51°20.619 3°2.121 7.312365 3.350034 32.599786 0.263742
2005-01-14 08:20:35 51°20.62 3°2.112 7.312365 3.350034 32.599786 0.263742
2005-01-14 08:20:41 51°20.621 3°2.104 7.317744 3.352351 32.620023 0.230033
2005-01-14 08:20:45 51°20.622 3°2.099 7.322965 3.353404 32.6298 0.162614
2005-01-14 08:20:50 51°20.624 3°2.092 7.323439 3.354457 32.636391 0.095195
2005-01-14 08:20:56 51°20.625 3°2.084 7.332139 3.356459 32.652414 0.128905
2005-01-14 08:21:01 51°20.627 3°2.077 7.328396 3.358565 32.670368 -0.005933
2005-01-14 08:21:06 51°20.629 3°2.07 7.328396 3.358565 32.670368 -0.005933
2005-01-14 08:21:11 51°20.631 3°2.064 7.333352 3.360356 32.683314 0.061486
2005-01-14 08:21:15 51°20.633 3°2.059 7.336726 3.361198 32.687624 0.027777
2005-01-14 08:21:21 51°20.636 3°2.051 7.33351 3.361303 32.68398 0.095195
2005-01-14 08:21:25 51°20.639 3°2.047 7.334143 3.364885 32.717829 0.095195
2005-01-14 08:21:30 51°20.642 3°2.041 7.34068 3.364674 32.715557 0.061486
2005-01-14 08:21:35 51°20.646 3°2.036 7.34068 3.364674 32.715557 0.061486
2005-01-14 08:21:41 51°20.65 3°2.03 7.341629 3.365306 32.71759 0.027777
2005-01-14 08:21:46 51°20.654 3°2.026 7.330558 3.364569 32.710434 0.128905
2005-01-14 08:21:49 51°20.657 3°2.024 7.325549 3.365517 32.72066 0.196324
2005-01-14 08:21:55 51°20.662 3°2.021 7.324968 3.366359 32.728154 -0.005933
2005-01-14 08:22:01 51°20.667 3°2.018 7.316953 3.364042 32.703957 0.095195
2005-01-14 08:22:05 51°20.67 3°2.017 7.316953 3.364042 32.703957 0.095195
2005-01-14 08:22:10 51°20.675 3°2.016 7.314738 3.365622 32.722593 0.027777
2005-01-14 08:22:15 51°20.679 3°2.016 7.313156 3.364147 32.709079 0.095195
2005-01-14 08:22:21 51°20.684 3°2.018 7.315846 3.362357 32.694545 0.027777
2005-01-14 08:22:25 51°20.686 3°2.02 7.31015 3.361093 32.684097 0.230033
2005-01-14 08:22:30 51°20.69 3°2.022 7.31015 3.361093 32.684097 0.230033
2005-01-14 08:22:35 51°20.693 3°2.025 7.303768 3.359197 32.666034 0.128905
2005-01-14 08:22:41 51°20.696 3°2.029 7.293112 3.359618 32.672969 0.027777
2005-01-14 08:22:45 51°20.697 3°2.032 7.296225 3.358565 32.661605 0.027777
2005-01-14 08:22:51 51°20.7 3°2.037 7.279025 3.35846 32.663655 0.196324
2005-01-14 08:22:55 51°20.701 3°2.041 7.260396 3.354879 32.627406 0.095195
2005-01-14 08:23:01 51°20.703 3°2.047 7.248942 3.354457 32.62843 0.128905
2005-01-14 08:23:05 51°20.704 3°2.052 7.248942 3.354457 32.62843 0.128905
2005-01-14 08:23:11 51°20.705 3°2.059 7.246091 3.353825 32.627182 0.061486
2005-01-14 08:23:15 51°20.706 3°2.064 7.246302 3.349928 32.593876 0.061486
2005-01-14 08:23:21 51°20.708 3°2.072 7.238858 3.346558 32.567834 0.230033
2005-01-14 08:23:25 51°20.709 3°2.077 7.23305 3.344768 32.559634 0.061486
2005-01-14 08:23:31 51°20.711 3°2.086 7.236693 3.342135 32.539945 0.027777
2005-01-14 08:23:35 51°20.713 3°2.091 7.236693 3.342135 32.539945 0.027777
2005-01-14 08:23:41 51°20.715 3°2.1 7.234423 3.340344 32.526967 0.39858
2005-01-14 08:23:45 51°20.717 3°2.106 7.234898 3.340555 32.530831 0.297452
2005-01-14 08:23:50 51°20.719 3°2.113 7.232786 3.336236 32.489751 0.196324
2005-01-14 08:23:55 51°20.721 3°2.12 7.229987 3.336763 32.49941 0.196324
2005-01-14 08:24:01 51°20.725 3°2.129 7.229195 3.336763 32.500999 0.196324
2005-01-14 08:24:05 51°20.727 3°2.135 7.229195 3.336763 32.500999 0.196324
2005-01-14 08:24:11 51°20.73 3°2.143 7.215042 3.330233 32.430466 0.230033
2005-01-14 08:24:15 51°20.733 3°2.149 7.215887 3.336342 32.497242 0.230033
2005-01-14 08:24:21 51°20.737 3°2.158 7.201941 3.335289 32.488246 0.230033
2005-01-14 08:24:25 51°20.739 3°2.164 7.201149 3.333393 32.467766 0.196324
2005-01-14 08:24:30 51°20.743 3°2.17 7.184242 3.331708 32.455117 0.263742
2005-01-14 08:24:35 51°20.745 3°2.178 7.184242 3.331708 32.455117 0.263742
2005-01-14 08:24:41 51°20.749 3°2.186 7.180807 3.329812 32.437809 0.263742
2005-01-14 08:24:45 51°20.751 3°2.192 7.171505 3.327705 32.422188 0.39858
2005-01-14 08:24:50 51°20.754 3°2.198 7.169867 3.31949 32.340562 0.263742
2005-01-14 08:24:55 51°20.756 3°2.205 7.167118 3.319069 32.344714 0.196324
2005-01-14 08:25:01 51°20.76 3°2.213 7.171717 3.318753 32.346841 0.297452
2005-01-14 08:25:05 51°20.761 3°2.219 7.171717 3.318753 32.346841 0.297452
2005-01-14 08:25:09 51°20.763 3°2.223 7.164793 3.317595 32.343819 0.196324
2005-01-14 08:25:15 51°20.766 3°2.232 7.163841 3.316015 32.332283 0.39858
2005-01-14 08:25:21 51°20.768 3°2.239 7.158714 3.314751 32.322577 0.364871
2005-01-14 08:25:25 51°20.769 3°2.245 7.1603 3.314751 32.322577 0.39858
2005-01-14 08:25:30 51°20.771 3°2.252 7.160775 3.313277 32.309009 0.297452
2005-01-14 08:25:35 51°20.772 3°2.258 7.160775 3.313277 32.309009 0.297452
2005-01-14 08:25:41 51°20.774 3°2.266 7.152581 3.313487 32.315244 0.230033
2005-01-14 08:25:46 51°20.775 3°2.273 7.150308 3.311697 32.296675 0.432289
2005-01-14 08:25:50 51°20.776 3°2.278 7.143593 3.313277 32.315341 0.465999
2005-01-14 08:25:55 51°20.776 3°2.285 7.13894 3.312224 32.303952 0.600836
2005-01-14 08:26:01 51°20.778 3°2.293 7.135291 3.311697 32.301422 0.39858
2005-01-14 08:26:05 51°20.778 3°2.298 7.135291 3.311697 32.301422 0.39858
2005-01-14 08:26:09 51°20.779 3°2.304 7.13582 3.310749 32.293545 0.600836
2005-01-14 08:26:15 51°20.781 3°2.311 7.125719 3.306326 32.250453 0.432289
2005-01-14 08:26:21 51°20.781 3°2.319 7.123286 3.307695 32.270004 0.364871
2005-01-14 08:26:25 51°20.783 3°2.324 7.124926 3.306642 32.262567 0.297452
2005-01-14 08:26:30 51°20.784 3°2.33 7.128416 3.305483 32.252407 0.533418
2005-01-14 08:26:35 51°20.784 3°2.337 7.128416 3.305483 32.252407 0.533418
2005-01-14 08:26:41 51°20.786 3°2.345 7.133282 3.303377 32.235944 0.364871
2005-01-14 08:26:45 51°20.787 3°2.349 7.123392 3.303904 32.243222 0.364871
2005-01-14 08:26:51 51°20.788 3°2.357 7.130743 3.302218 32.225782 0.364871
2005-01-14 08:26:55 51°20.79 3°2.362 7.121805 3.30285 32.233408 0.465999
2005-01-14 08:27:01 51°20.791 3°2.37 7.11842 3.302218 32.224201 0.600836
2005-01-14 08:27:05 51°20.792 3°2.375 7.11842 3.302218 32.224201 0.600836
2005-01-14 08:27:09 51°20.793 3°2.38 7.122704 3.301903 32.222363 0.634546
2005-01-14 08:27:15 51°20.794 3°2.387 7.122651 3.30264 32.23113 0.769383
2005-01-14 08:27:21 51°20.796 3°2.395 7.129315 3.301797 32.222804 0.465999
2005-01-14 08:27:25 51°20.797 3°2.4 7.121594 3.30106 32.217988 0.465999
2005-01-14 08:27:30 51°20.798 3°2.406 7.114453 3.300428 32.211151 0.567127
2005-01-14 08:27:36 51°20.799 3°2.413 7.114453 3.300428 32.211151 0.567127
2005-01-14 08:27:41 51°20.8 3°2.42 7.124079 3.300639 32.21264 0.701965
2005-01-14 08:27:45 51°20.801 3°2.425 7.109639 3.301692 32.223245 0.735674
2005-01-14 08:27:51 51°20.803 3°2.432 7.110591 3.301271 32.219477 0.567127
2005-01-14 08:27:55 51°20.803 3°2.437 7.109057 3.300323 32.213172 0.803093
2005-01-14 08:28:01 51°20.805 3°2.444 7.106676 3.300323 32.212382 0.668255
2005-01-14 08:28:06 51°20.807 3°2.45 7.106676 3.300323 32.212382 0.668255
2005-01-14 08:28:11 51°20.808 3°2.456 7.110485 3.299902 32.209404 0.567127
2005-01-14 08:28:15 51°20.809 3°2.461 7.099216 3.299164 32.205376 0.39858
2005-01-14 08:28:21 51°20.811 3°2.468 7.104983 3.298111 32.197139 0.668255
2005-01-14 08:28:26 51°20.812 3°2.474 7.08006 3.297374 32.19074 0.533418
2005-01-14 08:28:31 51°20.814 3°2.481 7.077149 3.297058 32.188111 0.769383
2005-01-14 08:28:36 51°20.815 3°2.486 7.077149 3.297058 32.188111 0.769383
2005-01-14 08:28:41 51°20.817 3°2.492 7.0826 3.2959 32.178731 0.499708
2005-01-14 08:28:46 51°20.818 3°2.498 7.072649 3.293793 32.159882 0.803093
2005-01-14 08:28:50 51°20.819 3°2.503 7.065609 3.292635 32.153656 0.600836
2005-01-14 08:28:55 51°20.821 3°2.509 7.070903 3.291266 32.145149 0.668255
2005-01-14 08:29:01 51°20.822 3°2.516 7.057827 3.289897 32.135061 0.735674
2005-01-14 08:29:05 51°20.824 3°2.52 7.057827 3.289897 32.135061 0.735674
2005-01-14 08:29:11 51°20.825 3°2.528 7.058038 3.28916 32.130235 0.735674
2005-01-14 08:29:15 51°20.826 3°2.533 7.055974 3.28779 32.119355 0.465999
2005-01-14 08:29:21 51°20.827 3°2.54 7.047025 3.287159 32.112513 0.533418
2005-01-14 08:29:26 51°20.829 3°2.546 7.046231 3.285684 32.099702 0.567127
2005-01-14 08:29:30 51°20.83 3°2.551 7.046443 3.284736 32.09338 0.465999
2005-01-14 08:29:35 51°20.831 3°2.557 7.046443 3.284736 32.09338 0.465999
2005-01-14 08:29:41 51°20.832 3°2.564 7.041518 3.283473 32.085212 0.803093
2005-01-14 08:29:45 51°20.833 3°2.569 7.050626 3.282314 32.077395 0.634546
2005-01-14 08:29:50 51°20.834 3°2.575 7.03119 3.280629 32.063083 0.634546
2005-01-14 08:29:55 51°20.836 3°2.581 7.034527 3.280419 32.064742 0.331161
2005-01-14 08:30:01 51°20.837 3°2.589 7.034527 3.280419 32.064742 0.331161
2005-01-14 08:30:05 51°20.838 3°2.593 7.028118 3.279049 32.051487 0.735674
2005-01-14 08:30:09 51°20.84 3°2.598 7.039876 3.279681 32.058332 0.701965
2005-01-14 08:30:15 51°20.841 3°2.605 7.042895 3.27905 32.055427 0.836802
2005-01-14 08:30:21 51°20.843 3°2.613 7.028595 3.278207 32.048663 0.668255
2005-01-14 08:30:26 51°20.844 3°2.619 7.029389 3.277575 32.045756 0.634546
2005-01-14 08:30:30 51°20.845 3°2.623 7.021497 3.277365 32.042686 0.701965
2005-01-14 08:30:35 51°20.846 3°2.629 7.021497 3.277365 32.042686 0.701965
2005-01-14 08:30:41 51°20.848 3°2.637 7.029231 3.276522 32.030406 1.039059
2005-01-14 08:30:45 51°20.849 3°2.641 7.017524 3.276943 32.038909 1.005349
2005-01-14 08:30:51 51°20.851 3°2.648 7.016464 3.276417 32.035567 0.803093
2005-01-14 08:30:55 51°20.852 3°2.653 7.016464 3.274521 32.017388 1.072768
2005-01-14 08:31:01 51°20.854 3°2.66 7.012438 3.275153 32.025023 0.803093
2005-01-14 08:31:06 51°20.855 3°2.666 7.012438 3.275153 32.025023 0.803093
2005-01-14 08:31:10 51°20.856 3°2.671 7.00751 3.273995 32.01562 0.735674
2005-01-14 08:31:15 51°20.857 3°2.677 7.010848 3.273573 32.014992 0.769383
2005-01-14 08:31:21 51°20.859 3°2.684 7.005338 3.271783 31.99795 0.836802
2005-01-14 08:31:25 51°20.86 3°2.688 7.001947 3.272099 32.002949 0.836802
2005-01-14 08:31:31 51°20.862 3°2.695 7.00094 3.270625 31.989331 0.93793
2005-01-14 08:31:35 51°20.862 3°2.7 7.00094 3.270625 31.989331 0.93793
2005-01-14 08:31:41 51°20.864 3°2.707 6.99527 3.270098 31.982836 0.870512
2005-01-14 08:31:45 51°20.865 3°2.712 7.006345 3.270625 31.991692 0.836802
2005-01-14 08:31:50 51°20.867 3°2.718 6.986949 3.269256 31.98 0.836802
2005-01-14 08:31:55 51°20.868 3°2.724 6.984193 3.268729 31.979015 0.870512
2005-01-14 08:32:01 51°20.87 3°2.731 6.989493 3.267676 31.97232 0.803093
2005-01-14 08:32:05 51°20.871 3°2.735 6.989493 3.267676 31.97232 0.803093
2005-01-14 08:32:11 51°20.873 3°2.742 6.981702 3.26736 31.96732 0.600836
2005-01-14 08:32:15 51°20.874 3°2.747 6.983027 3.266518 31.961333 0.803093
2005-01-14 08:32:21 51°20.876 3°2.754 6.979104 3.265886 31.957629 0.836802
2005-01-14 08:32:25 51°20.877 3°2.759 6.97815 3.265254 31.951565 0.701965
2005-01-14 08:32:31 51°20.878 3°2.766 6.978733 3.264938 31.952073 0.870512
2005-01-14 08:32:36 51°20.88 3°2.772 6.978733 3.264938 31.952073 0.870512
2005-01-14 08:32:41 51°20.882 3°2.778 6.980217 3.264201 31.944865 0.836802
2005-01-14 08:32:45 51°20.883 3°2.782 6.972001 3.263885 31.943013 0.701965